﻿<?xml version="1.0" encoding="UTF-8" standalone="no"?>
<gpx xmlns="http://www.topografix.com/GPX/1/1" xmlns:gpxtpx="http://www.garmin.com/xmlschemas/TrackPointExtension/v1" xmlns:xsi="http://www.w3.org/2001/XMLSchema-instance" creator="Hribi.net" version="1.1" xsi:schemaLocation="http://www.topografix.com/GPX/1/1 http://www.topografix.com/GPX/1/1/gpx.xsd http://www.garmin.com/xmlschemas/TrackPointExtension/v1 http://www.garmin.com/xmlschemas/TrackPointExtensionv1.xsd">
  <metadata>
    <name>GPS sled</name>
    <desc>www.hribi.net</desc>
    <author>
      <name>hribi.net</name>
    </author>
    <link href="http://www.hribi.net">
      <text>Hribi.net</text>
    </link>
  </metadata>
  <trk>
    <trkseg>
      <trkpt lat="46.358932" lon="14.278771">
        <ele>696.6015292224</ele>
        <time>2011-02-26T08:20:37Z</time>
      </trkpt>
      <trkpt lat="46.358932" lon="14.278771">
        <ele>697.5615175488</ele>
        <time>2011-02-26T08:20:41Z</time>
      </trkpt>
      <trkpt lat="46.358932" lon="14.278771">
        <ele>700.4514824064</ele>
        <time>2011-02-26T08:20:52Z</time>
      </trkpt>
      <trkpt lat="46.358932" lon="14.278771">
        <ele>695.1615467328</ele>
        <time>2011-02-26T08:20:53Z</time>
      </trkpt>
      <trkpt lat="46.358930" lon="14.278771">
        <ele>699.0114999168</ele>
        <time>2011-02-26T08:20:55Z</time>
      </trkpt>
      <trkpt lat="46.358930" lon="14.278771">
        <ele>697.5615175488</ele>
        <time>2011-02-26T08:21:16Z</time>
      </trkpt>
      <trkpt lat="46.358930" lon="14.278771">
        <ele>703.3314473856</ele>
        <time>2011-02-26T08:21:22Z</time>
      </trkpt>
      <trkpt lat="46.358930" lon="14.278771">
        <ele>697.5615175488</ele>
        <time>2011-02-26T08:21:23Z</time>
      </trkpt>
      <trkpt lat="46.358924" lon="14.278779">
        <ele>697.0815233856</ele>
        <time>2011-02-26T08:21:28Z</time>
      </trkpt>
      <trkpt lat="46.358970" lon="14.278849">
        <ele>697.0815233856</ele>
        <time>2011-02-26T08:21:35Z</time>
      </trkpt>
      <trkpt lat="46.358984" lon="14.278727">
        <ele>697.0815233856</ele>
        <time>2011-02-26T08:21:47Z</time>
      </trkpt>
      <trkpt lat="46.358960" lon="14.278638">
        <ele>698.041511712</ele>
        <time>2011-02-26T08:21:54Z</time>
      </trkpt>
      <trkpt lat="46.358922" lon="14.278514">
        <ele>698.041511712</ele>
        <time>2011-02-26T08:22:03Z</time>
      </trkpt>
      <trkpt lat="46.358880" lon="14.278310">
        <ele>699.0114999168</ele>
        <time>2011-02-26T08:22:18Z</time>
      </trkpt>
      <trkpt lat="46.358856" lon="14.278165">
        <ele>699.9714882432</ele>
        <time>2011-02-26T08:22:29Z</time>
      </trkpt>
      <trkpt lat="46.358842" lon="14.278076">
        <ele>700.9314765696</ele>
        <time>2011-02-26T08:22:35Z</time>
      </trkpt>
      <trkpt lat="46.358819" lon="14.277879">
        <ele>702.3714590592</ele>
        <time>2011-02-26T08:22:48Z</time>
      </trkpt>
      <trkpt lat="46.358817" lon="14.277867">
        <ele>702.3714590592</ele>
        <time>2011-02-26T08:22:49Z</time>
      </trkpt>
      <trkpt lat="46.358795" lon="14.277767">
        <ele>701.4114707328</ele>
        <time>2011-02-26T08:22:57Z</time>
      </trkpt>
      <trkpt lat="46.358787" lon="14.277733">
        <ele>704.7714298752</ele>
        <time>2011-02-26T08:23:00Z</time>
      </trkpt>
      <trkpt lat="46.358758" lon="14.277563">
        <ele>706.7014064064</ele>
        <time>2011-02-26T08:23:15Z</time>
      </trkpt>
      <trkpt lat="46.358759" lon="14.277516">
        <ele>706.2214122432</ele>
        <time>2011-02-26T08:23:29Z</time>
      </trkpt>
      <trkpt lat="46.358761" lon="14.277517">
        <ele>706.2214122432</ele>
        <time>2011-02-26T08:23:31Z</time>
      </trkpt>
      <trkpt lat="46.358767" lon="14.277454">
        <ele>706.7014064064</ele>
        <time>2011-02-26T08:23:34Z</time>
      </trkpt>
      <trkpt lat="46.358756" lon="14.277330">
        <ele>707.6613947328</ele>
        <time>2011-02-26T08:23:43Z</time>
      </trkpt>
      <trkpt lat="46.358755" lon="14.277212">
        <ele>708.6213830592</ele>
        <time>2011-02-26T08:23:51Z</time>
      </trkpt>
      <trkpt lat="46.358741" lon="14.277123">
        <ele>709.5813713856</ele>
        <time>2011-02-26T08:23:58Z</time>
      </trkpt>
      <trkpt lat="46.358740" lon="14.277070">
        <ele>710.0613655488</ele>
        <time>2011-02-26T08:24:01Z</time>
      </trkpt>
      <trkpt lat="46.358735" lon="14.276882">
        <ele>710.541359712</ele>
        <time>2011-02-26T08:24:10Z</time>
      </trkpt>
      <trkpt lat="46.358742" lon="14.276673">
        <ele>711.9813422016</ele>
        <time>2011-02-26T08:24:21Z</time>
      </trkpt>
      <trkpt lat="46.358751" lon="14.276545">
        <ele>712.941330528</ele>
        <time>2011-02-26T08:24:28Z</time>
      </trkpt>
      <trkpt lat="46.358795" lon="14.276427">
        <ele>712.941330528</ele>
        <time>2011-02-26T08:24:41Z</time>
      </trkpt>
      <trkpt lat="46.358798" lon="14.276415">
        <ele>713.4313245696</ele>
        <time>2011-02-26T08:24:43Z</time>
      </trkpt>
      <trkpt lat="46.358826" lon="14.276363">
        <ele>713.4313245696</ele>
        <time>2011-02-26T08:24:48Z</time>
      </trkpt>
      <trkpt lat="46.358846" lon="14.276336">
        <ele>713.4313245696</ele>
        <time>2011-02-26T08:25:04Z</time>
      </trkpt>
      <trkpt lat="46.358887" lon="14.276227">
        <ele>714.8713070592</ele>
        <time>2011-02-26T08:25:18Z</time>
      </trkpt>
      <trkpt lat="46.358957" lon="14.276087">
        <ele>716.3112895488</ele>
        <time>2011-02-26T08:25:31Z</time>
      </trkpt>
      <trkpt lat="46.358990" lon="14.276015">
        <ele>716.791283712</ele>
        <time>2011-02-26T08:25:45Z</time>
      </trkpt>
      <trkpt lat="46.358989" lon="14.276010">
        <ele>716.3112895488</ele>
        <time>2011-02-26T08:26:00Z</time>
      </trkpt>
      <trkpt lat="46.358989" lon="14.275975">
        <ele>716.3112895488</ele>
        <time>2011-02-26T08:26:12Z</time>
      </trkpt>
      <trkpt lat="46.359000" lon="14.275838">
        <ele>717.7512720384</ele>
        <time>2011-02-26T08:26:23Z</time>
      </trkpt>
      <trkpt lat="46.359006" lon="14.275682">
        <ele>718.7112603648</ele>
        <time>2011-02-26T08:26:33Z</time>
      </trkpt>
      <trkpt lat="46.359026" lon="14.275544">
        <ele>719.191254528</ele>
        <time>2011-02-26T08:26:47Z</time>
      </trkpt>
      <trkpt lat="46.359031" lon="14.275496">
        <ele>720.1512428544</ele>
        <time>2011-02-26T08:26:50Z</time>
      </trkpt>
      <trkpt lat="46.359049" lon="14.275374">
        <ele>721.1212310592</ele>
        <time>2011-02-26T08:26:59Z</time>
      </trkpt>
      <trkpt lat="46.359126" lon="14.275290">
        <ele>722.5612135488</ele>
        <time>2011-02-26T08:27:09Z</time>
      </trkpt>
      <trkpt lat="46.359173" lon="14.275315">
        <ele>722.5612135488</ele>
        <time>2011-02-26T08:27:14Z</time>
      </trkpt>
      <trkpt lat="46.359191" lon="14.275320">
        <ele>723.041207712</ele>
        <time>2011-02-26T08:27:15Z</time>
      </trkpt>
      <trkpt lat="46.359273" lon="14.275309">
        <ele>724.9611843648</ele>
        <time>2011-02-26T08:27:29Z</time>
      </trkpt>
      <trkpt lat="46.359299" lon="14.275233">
        <ele>725.9211726912</ele>
        <time>2011-02-26T08:27:40Z</time>
      </trkpt>
      <trkpt lat="46.359298" lon="14.275235">
        <ele>724.9611843648</ele>
        <time>2011-02-26T08:27:56Z</time>
      </trkpt>
      <trkpt lat="46.359293" lon="14.275232">
        <ele>725.9211726912</ele>
        <time>2011-02-26T08:28:12Z</time>
      </trkpt>
      <trkpt lat="46.359303" lon="14.275121">
        <ele>725.9211726912</ele>
        <time>2011-02-26T08:28:31Z</time>
      </trkpt>
      <trkpt lat="46.359312" lon="14.275029">
        <ele>726.8811610176</ele>
        <time>2011-02-26T08:28:39Z</time>
      </trkpt>
      <trkpt lat="46.359318" lon="14.274963">
        <ele>727.8511492224</ele>
        <time>2011-02-26T08:28:44Z</time>
      </trkpt>
      <trkpt lat="46.359323" lon="14.274944">
        <ele>727.8511492224</ele>
        <time>2011-02-26T08:28:47Z</time>
      </trkpt>
      <trkpt lat="46.359348" lon="14.274857">
        <ele>729.291131712</ele>
        <time>2011-02-26T08:29:02Z</time>
      </trkpt>
      <trkpt lat="46.359380" lon="14.274768">
        <ele>730.2511200384</ele>
        <time>2011-02-26T08:29:15Z</time>
      </trkpt>
      <trkpt lat="46.359407" lon="14.274691">
        <ele>731.2111083648</ele>
        <time>2011-02-26T08:29:28Z</time>
      </trkpt>
      <trkpt lat="46.359429" lon="14.274647">
        <ele>732.6510908544</ele>
        <time>2011-02-26T08:29:41Z</time>
      </trkpt>
      <trkpt lat="46.359476" lon="14.274556">
        <ele>733.1310850176</ele>
        <time>2011-02-26T08:29:51Z</time>
      </trkpt>
      <trkpt lat="46.359566" lon="14.274475">
        <ele>735.0610615488</ele>
        <time>2011-02-26T08:30:01Z</time>
      </trkpt>
      <trkpt lat="46.359680" lon="14.274381">
        <ele>736.5010440384</ele>
        <time>2011-02-26T08:30:15Z</time>
      </trkpt>
      <trkpt lat="46.359769" lon="14.274241">
        <ele>738.9010148544</ele>
        <time>2011-02-26T08:30:28Z</time>
      </trkpt>
      <trkpt lat="46.359822" lon="14.274124">
        <ele>739.3810090176</ele>
        <time>2011-02-26T08:30:39Z</time>
      </trkpt>
      <trkpt lat="46.359857" lon="14.274025">
        <ele>741.7809798336</ele>
        <time>2011-02-26T08:30:49Z</time>
      </trkpt>
      <trkpt lat="46.359931" lon="14.273890">
        <ele>742.7509680384</ele>
        <time>2011-02-26T08:31:01Z</time>
      </trkpt>
      <trkpt lat="46.360015" lon="14.273769">
        <ele>743.7109563648</ele>
        <time>2011-02-26T08:31:13Z</time>
      </trkpt>
      <trkpt lat="46.360083" lon="14.273608">
        <ele>746.590921344</ele>
        <time>2011-02-26T08:31:26Z</time>
      </trkpt>
      <trkpt lat="46.360091" lon="14.273575">
        <ele>747.0709155072</ele>
        <time>2011-02-26T08:31:29Z</time>
      </trkpt>
      <trkpt lat="46.360111" lon="14.273432">
        <ele>748.0309038336</ele>
        <time>2011-02-26T08:31:43Z</time>
      </trkpt>
      <trkpt lat="46.360125" lon="14.273380">
        <ele>747.5509096704</ele>
        <time>2011-02-26T08:31:45Z</time>
      </trkpt>
      <trkpt lat="46.360199" lon="14.273246">
        <ele>748.5108979968</ele>
        <time>2011-02-26T08:31:57Z</time>
      </trkpt>
      <trkpt lat="46.360240" lon="14.273145">
        <ele>749.9608803648</ele>
        <time>2011-02-26T08:32:10Z</time>
      </trkpt>
      <trkpt lat="46.360246" lon="14.273138">
        <ele>750.440874528</ele>
        <time>2011-02-26T08:32:15Z</time>
      </trkpt>
      <trkpt lat="46.360291" lon="14.273056">
        <ele>751.4008628544</ele>
        <time>2011-02-26T08:32:30Z</time>
      </trkpt>
      <trkpt lat="46.360291" lon="14.273056">
        <ele>751.8808570176</ele>
        <time>2011-02-26T08:32:50Z</time>
      </trkpt>
      <trkpt lat="46.360288" lon="14.273051">
        <ele>751.4008628544</ele>
        <time>2011-02-26T08:33:18Z</time>
      </trkpt>
      <trkpt lat="46.360288" lon="14.273051">
        <ele>748.5108979968</ele>
        <time>2011-02-26T08:33:33Z</time>
      </trkpt>
      <trkpt lat="46.360288" lon="14.273051">
        <ele>754.2808278336</ele>
        <time>2011-02-26T08:33:35Z</time>
      </trkpt>
      <trkpt lat="46.360322" lon="14.273063">
        <ele>753.8008336704</ele>
        <time>2011-02-26T08:33:50Z</time>
      </trkpt>
      <trkpt lat="46.360381" lon="14.273014">
        <ele>757.1707926912</ele>
        <time>2011-02-26T08:33:59Z</time>
      </trkpt>
      <trkpt lat="46.360418" lon="14.272974">
        <ele>758.6107751808</ele>
        <time>2011-02-26T08:34:14Z</time>
      </trkpt>
      <trkpt lat="46.360513" lon="14.272864">
        <ele>760.0507576704</ele>
        <time>2011-02-26T08:34:26Z</time>
      </trkpt>
      <trkpt lat="46.360568" lon="14.272802">
        <ele>761.9707343232</ele>
        <time>2011-02-26T08:34:37Z</time>
      </trkpt>
      <trkpt lat="46.360640" lon="14.272712">
        <ele>763.4107168128</ele>
        <time>2011-02-26T08:34:52Z</time>
      </trkpt>
      <trkpt lat="46.360650" lon="14.272674">
        <ele>766.7806758336</ele>
        <time>2011-02-26T08:34:56Z</time>
      </trkpt>
      <trkpt lat="46.360701" lon="14.272606">
        <ele>767.74066416</ele>
        <time>2011-02-26T08:35:09Z</time>
      </trkpt>
      <trkpt lat="46.360750" lon="14.272546">
        <ele>769.6606408128</ele>
        <time>2011-02-26T08:35:24Z</time>
      </trkpt>
      <trkpt lat="46.360813" lon="14.272530">
        <ele>772.0706115072</ele>
        <time>2011-02-26T08:35:38Z</time>
      </trkpt>
      <trkpt lat="46.360878" lon="14.272496">
        <ele>774.4705823232</ele>
        <time>2011-02-26T08:35:51Z</time>
      </trkpt>
      <trkpt lat="46.360918" lon="14.272464">
        <ele>778.3105356288</ele>
        <time>2011-02-26T08:36:06Z</time>
      </trkpt>
      <trkpt lat="46.360982" lon="14.272352">
        <ele>779.7605179968</ele>
        <time>2011-02-26T08:36:22Z</time>
      </trkpt>
      <trkpt lat="46.360991" lon="14.272346">
        <ele>779.7605179968</ele>
        <time>2011-02-26T08:36:22Z</time>
      </trkpt>
      <trkpt lat="46.361022" lon="14.272319">
        <ele>780.24051216</ele>
        <time>2011-02-26T08:36:34Z</time>
      </trkpt>
      <trkpt lat="46.361075" lon="14.272261">
        <ele>781.6804946496</ele>
        <time>2011-02-26T08:36:48Z</time>
      </trkpt>
      <trkpt lat="46.361152" lon="14.272181">
        <ele>784.0804654656</ele>
        <time>2011-02-26T08:37:01Z</time>
      </trkpt>
      <trkpt lat="46.361223" lon="14.272113">
        <ele>786.0104419968</ele>
        <time>2011-02-26T08:37:15Z</time>
      </trkpt>
      <trkpt lat="46.361223" lon="14.272113">
        <ele>786.9704303232</ele>
        <time>2011-02-26T08:37:35Z</time>
      </trkpt>
      <trkpt lat="46.361255" lon="14.272082">
        <ele>788.4104128128</ele>
        <time>2011-02-26T08:38:02Z</time>
      </trkpt>
      <trkpt lat="46.361326" lon="14.271995">
        <ele>789.8503953024</ele>
        <time>2011-02-26T08:38:15Z</time>
      </trkpt>
      <trkpt lat="46.361364" lon="14.271929">
        <ele>793.2103544448</ele>
        <time>2011-02-26T08:38:32Z</time>
      </trkpt>
      <trkpt lat="46.361429" lon="14.271866">
        <ele>795.6203251392</ele>
        <time>2011-02-26T08:38:42Z</time>
      </trkpt>
      <trkpt lat="46.361511" lon="14.271777">
        <ele>797.540301792</ele>
        <time>2011-02-26T08:38:56Z</time>
      </trkpt>
      <trkpt lat="46.361576" lon="14.271695">
        <ele>800.4302666496</ele>
        <time>2011-02-26T08:39:14Z</time>
      </trkpt>
      <trkpt lat="46.361618" lon="14.271638">
        <ele>800.9102608128</ele>
        <time>2011-02-26T08:39:23Z</time>
      </trkpt>
      <trkpt lat="46.361672" lon="14.271512">
        <ele>803.3102316288</ele>
        <time>2011-02-26T08:39:38Z</time>
      </trkpt>
      <trkpt lat="46.361684" lon="14.271348">
        <ele>805.2302082816</ele>
        <time>2011-02-26T08:39:54Z</time>
      </trkpt>
      <trkpt lat="46.361724" lon="14.271198">
        <ele>807.6301790976</ele>
        <time>2011-02-26T08:40:10Z</time>
      </trkpt>
      <trkpt lat="46.361749" lon="14.271072">
        <ele>808.6001673024</ele>
        <time>2011-02-26T08:40:22Z</time>
      </trkpt>
      <trkpt lat="46.361769" lon="14.271015">
        <ele>809.5601556288</ele>
        <time>2011-02-26T08:40:37Z</time>
      </trkpt>
      <trkpt lat="46.361777" lon="14.271005">
        <ele>813.4001089344</ele>
        <time>2011-02-26T08:40:39Z</time>
      </trkpt>
      <trkpt lat="46.361784" lon="14.271006">
        <ele>812.440120608</ele>
        <time>2011-02-26T08:40:40Z</time>
      </trkpt>
      <trkpt lat="46.361790" lon="14.271010">
        <ele>811.0001381184</ele>
        <time>2011-02-26T08:40:41Z</time>
      </trkpt>
      <trkpt lat="46.361804" lon="14.271005">
        <ele>810.040149792</ele>
        <time>2011-02-26T08:40:59Z</time>
      </trkpt>
      <trkpt lat="46.361806" lon="14.271000">
        <ele>810.040149792</ele>
        <time>2011-02-26T08:41:24Z</time>
      </trkpt>
      <trkpt lat="46.361815" lon="14.270995">
        <ele>810.5201439552</ele>
        <time>2011-02-26T08:41:47Z</time>
      </trkpt>
      <trkpt lat="46.361835" lon="14.270950">
        <ele>810.040149792</ele>
        <time>2011-02-26T08:42:01Z</time>
      </trkpt>
      <trkpt lat="46.361891" lon="14.270942">
        <ele>810.040149792</ele>
        <time>2011-02-26T08:42:27Z</time>
      </trkpt>
      <trkpt lat="46.362026" lon="14.270788">
        <ele>810.040149792</ele>
        <time>2011-02-26T08:42:40Z</time>
      </trkpt>
      <trkpt lat="46.362039" lon="14.270734">
        <ele>810.040149792</ele>
        <time>2011-02-26T08:42:55Z</time>
      </trkpt>
      <trkpt lat="46.362115" lon="14.270619">
        <ele>811.9601264448</ele>
        <time>2011-02-26T08:43:08Z</time>
      </trkpt>
      <trkpt lat="46.362153" lon="14.270521">
        <ele>813.8801030976</ele>
        <time>2011-02-26T08:43:21Z</time>
      </trkpt>
      <trkpt lat="46.362194" lon="14.270402">
        <ele>816.290073792</ele>
        <time>2011-02-26T08:43:35Z</time>
      </trkpt>
      <trkpt lat="46.362289" lon="14.270272">
        <ele>819.1700387712</ele>
        <time>2011-02-26T08:43:52Z</time>
      </trkpt>
      <trkpt lat="46.362292" lon="14.270269">
        <ele>821.090015424</ele>
        <time>2011-02-26T08:44:13Z</time>
      </trkpt>
      <trkpt lat="46.362364" lon="14.270171">
        <ele>823.0199919552</ele>
        <time>2011-02-26T08:44:27Z</time>
      </trkpt>
      <trkpt lat="46.362454" lon="14.270032">
        <ele>826.3799510976</ele>
        <time>2011-02-26T08:44:43Z</time>
      </trkpt>
      <trkpt lat="46.362509" lon="14.269985">
        <ele>827.8199335872</ele>
        <time>2011-02-26T08:44:59Z</time>
      </trkpt>
      <trkpt lat="46.362576" lon="14.269877">
        <ele>829.7499101184</ele>
        <time>2011-02-26T08:45:10Z</time>
      </trkpt>
      <trkpt lat="46.362602" lon="14.269806">
        <ele>830.7098984448</ele>
        <time>2011-02-26T08:45:23Z</time>
      </trkpt>
      <trkpt lat="46.362635" lon="14.269754">
        <ele>832.6298750976</ele>
        <time>2011-02-26T08:45:36Z</time>
      </trkpt>
      <trkpt lat="46.362707" lon="14.269701">
        <ele>834.5498517504</ele>
        <time>2011-02-26T08:45:48Z</time>
      </trkpt>
      <trkpt lat="46.362792" lon="14.269551">
        <ele>836.9498225664</ele>
        <time>2011-02-26T08:46:03Z</time>
      </trkpt>
      <trkpt lat="46.362839" lon="14.269480">
        <ele>838.3998049344</ele>
        <time>2011-02-26T08:46:13Z</time>
      </trkpt>
      <trkpt lat="46.362869" lon="14.269451">
        <ele>840.3197815872</ele>
        <time>2011-02-26T08:46:30Z</time>
      </trkpt>
      <trkpt lat="46.362939" lon="14.269422">
        <ele>842.23975824</ele>
        <time>2011-02-26T08:46:44Z</time>
      </trkpt>
      <trkpt lat="46.363000" lon="14.269414">
        <ele>844.6497289344</ele>
        <time>2011-02-26T08:46:58Z</time>
      </trkpt>
      <trkpt lat="46.363055" lon="14.269427">
        <ele>845.6097172608</ele>
        <time>2011-02-26T08:47:11Z</time>
      </trkpt>
      <trkpt lat="46.363202" lon="14.269486">
        <ele>849.4496705664</ele>
        <time>2011-02-26T08:47:26Z</time>
      </trkpt>
      <trkpt lat="46.363342" lon="14.269564">
        <ele>850.889653056</ele>
        <time>2011-02-26T08:47:41Z</time>
      </trkpt>
      <trkpt lat="46.363386" lon="14.269623">
        <ele>852.8196295872</ele>
        <time>2011-02-26T08:47:55Z</time>
      </trkpt>
      <trkpt lat="46.363433" lon="14.269650">
        <ele>855.2196004032</ele>
        <time>2011-02-26T08:48:09Z</time>
      </trkpt>
      <trkpt lat="46.363516" lon="14.269695">
        <ele>856.6595828928</ele>
        <time>2011-02-26T08:48:23Z</time>
      </trkpt>
      <trkpt lat="46.363568" lon="14.269710">
        <ele>860.5095360768</ele>
        <time>2011-02-26T08:48:34Z</time>
      </trkpt>
      <trkpt lat="46.363585" lon="14.269737">
        <ele>859.0695535872</ele>
        <time>2011-02-26T08:48:46Z</time>
      </trkpt>
      <trkpt lat="46.363585" lon="14.269737">
        <ele>858.0995653824</ele>
        <time>2011-02-26T08:49:10Z</time>
      </trkpt>
      <trkpt lat="46.363590" lon="14.269736">
        <ele>858.0995653824</ele>
        <time>2011-02-26T08:49:43Z</time>
      </trkpt>
      <trkpt lat="46.363588" lon="14.269739">
        <ele>857.6195712192</ele>
        <time>2011-02-26T08:50:11Z</time>
      </trkpt>
      <trkpt lat="46.363601" lon="14.269754">
        <ele>857.6195712192</ele>
        <time>2011-02-26T08:50:31Z</time>
      </trkpt>
      <trkpt lat="46.363606" lon="14.269758">
        <ele>859.5495477504</ele>
        <time>2011-02-26T08:50:37Z</time>
      </trkpt>
      <trkpt lat="46.363626" lon="14.269785">
        <ele>859.5495477504</ele>
        <time>2011-02-26T08:50:54Z</time>
      </trkpt>
      <trkpt lat="46.363637" lon="14.269795">
        <ele>858.5795595456</ele>
        <time>2011-02-26T08:51:16Z</time>
      </trkpt>
      <trkpt lat="46.363637" lon="14.269795">
        <ele>859.0695535872</ele>
        <time>2011-02-26T08:51:39Z</time>
      </trkpt>
      <trkpt lat="46.363657" lon="14.269816">
        <ele>858.5795595456</ele>
        <time>2011-02-26T08:51:59Z</time>
      </trkpt>
      <trkpt lat="46.363750" lon="14.269916">
        <ele>861.4695244032</ele>
        <time>2011-02-26T08:52:17Z</time>
      </trkpt>
      <trkpt lat="46.363805" lon="14.270009">
        <ele>865.3094777088</ele>
        <time>2011-02-26T08:52:30Z</time>
      </trkpt>
      <trkpt lat="46.363866" lon="14.270048">
        <ele>866.7594600768</ele>
        <time>2011-02-26T08:52:46Z</time>
      </trkpt>
      <trkpt lat="46.363892" lon="14.270072">
        <ele>868.6794367296</ele>
        <time>2011-02-26T08:53:01Z</time>
      </trkpt>
      <trkpt lat="46.363990" lon="14.270083">
        <ele>871.0794075456</ele>
        <time>2011-02-26T08:53:13Z</time>
      </trkpt>
      <trkpt lat="46.364062" lon="14.270116">
        <ele>872.039395872</ele>
        <time>2011-02-26T08:53:28Z</time>
      </trkpt>
      <trkpt lat="46.363997" lon="14.270182">
        <ele>873.48937824</ele>
        <time>2011-02-26T08:53:39Z</time>
      </trkpt>
      <trkpt lat="46.363990" lon="14.270183">
        <ele>874.4493665664</ele>
        <time>2011-02-26T08:53:40Z</time>
      </trkpt>
      <trkpt lat="46.363913" lon="14.270232">
        <ele>874.9293607296</ele>
        <time>2011-02-26T08:53:51Z</time>
      </trkpt>
      <trkpt lat="46.363860" lon="14.270245">
        <ele>876.8493373824</ele>
        <time>2011-02-26T08:54:03Z</time>
      </trkpt>
      <trkpt lat="46.363809" lon="14.270222">
        <ele>878.7693140352</ele>
        <time>2011-02-26T08:54:15Z</time>
      </trkpt>
      <trkpt lat="46.363738" lon="14.270215">
        <ele>881.6592788928</ele>
        <time>2011-02-26T08:54:29Z</time>
      </trkpt>
      <trkpt lat="46.363665" lon="14.270229">
        <ele>882.139273056</ele>
        <time>2011-02-26T08:54:40Z</time>
      </trkpt>
      <trkpt lat="46.363635" lon="14.270348">
        <ele>885.0192380352</ele>
        <time>2011-02-26T08:54:56Z</time>
      </trkpt>
      <trkpt lat="46.363587" lon="14.270381">
        <ele>887.4192088512</ele>
        <time>2011-02-26T08:55:09Z</time>
      </trkpt>
      <trkpt lat="46.363527" lon="14.270459">
        <ele>888.389197056</ele>
        <time>2011-02-26T08:55:24Z</time>
      </trkpt>
      <trkpt lat="46.363516" lon="14.270548">
        <ele>890.789167872</ele>
        <time>2011-02-26T08:55:38Z</time>
      </trkpt>
      <trkpt lat="46.363527" lon="14.270640">
        <ele>892.2291503616</ele>
        <time>2011-02-26T08:55:50Z</time>
      </trkpt>
      <trkpt lat="46.363539" lon="14.270724">
        <ele>895.1091153408</ele>
        <time>2011-02-26T08:56:05Z</time>
      </trkpt>
      <trkpt lat="46.363571" lon="14.270772">
        <ele>897.5190860352</ele>
        <time>2011-02-26T08:56:18Z</time>
      </trkpt>
      <trkpt lat="46.363615" lon="14.270746">
        <ele>899.439062688</ele>
        <time>2011-02-26T08:56:30Z</time>
      </trkpt>
      <trkpt lat="46.363655" lon="14.270716">
        <ele>901.3590393408</ele>
        <time>2011-02-26T08:56:44Z</time>
      </trkpt>
      <trkpt lat="46.363683" lon="14.270679">
        <ele>902.8090217088</ele>
        <time>2011-02-26T08:56:56Z</time>
      </trkpt>
      <trkpt lat="46.363683" lon="14.270679">
        <ele>902.3190276672</ele>
        <time>2011-02-26T08:57:22Z</time>
      </trkpt>
      <trkpt lat="46.363703" lon="14.270703">
        <ele>903.7690100352</ele>
        <time>2011-02-26T08:57:39Z</time>
      </trkpt>
      <trkpt lat="46.363744" lon="14.270706">
        <ele>904.2490041984</ele>
        <time>2011-02-26T08:58:08Z</time>
      </trkpt>
      <trkpt lat="46.363794" lon="14.270728">
        <ele>906.1689808512</ele>
        <time>2011-02-26T08:58:21Z</time>
      </trkpt>
      <trkpt lat="46.363862" lon="14.270737">
        <ele>908.5689516672</ele>
        <time>2011-02-26T08:58:37Z</time>
      </trkpt>
      <trkpt lat="46.363835" lon="14.270795">
        <ele>910.4989281984</ele>
        <time>2011-02-26T08:58:48Z</time>
      </trkpt>
      <trkpt lat="46.363871" lon="14.270827">
        <ele>911.4589165248</ele>
        <time>2011-02-26T08:58:59Z</time>
      </trkpt>
      <trkpt lat="46.363871" lon="14.270827">
        <ele>911.4589165248</ele>
        <time>2011-02-26T08:59:22Z</time>
      </trkpt>
      <trkpt lat="46.363885" lon="14.270860">
        <ele>911.938910688</ele>
        <time>2011-02-26T08:59:47Z</time>
      </trkpt>
      <trkpt lat="46.363869" lon="14.270924">
        <ele>915.7788639936</ele>
        <time>2011-02-26T09:00:01Z</time>
      </trkpt>
      <trkpt lat="46.363900" lon="14.270967">
        <ele>916.73885232</ele>
        <time>2011-02-26T09:00:16Z</time>
      </trkpt>
      <trkpt lat="46.363945" lon="14.271026">
        <ele>919.1488230144</ele>
        <time>2011-02-26T09:00:28Z</time>
      </trkpt>
      <trkpt lat="46.363964" lon="14.271069">
        <ele>920.1088113408</ele>
        <time>2011-02-26T09:00:44Z</time>
      </trkpt>
      <trkpt lat="46.363996" lon="14.271080">
        <ele>922.5087821568</ele>
        <time>2011-02-26T09:00:56Z</time>
      </trkpt>
      <trkpt lat="46.364062" lon="14.271094">
        <ele>924.9187528512</ele>
        <time>2011-02-26T09:01:11Z</time>
      </trkpt>
      <trkpt lat="46.364059" lon="14.271147">
        <ele>926.838729504</ele>
        <time>2011-02-26T09:01:26Z</time>
      </trkpt>
      <trkpt lat="46.364145" lon="14.271149">
        <ele>928.7587061568</ele>
        <time>2011-02-26T09:01:42Z</time>
      </trkpt>
      <trkpt lat="46.364171" lon="14.271153">
        <ele>932.6086593408</ele>
        <time>2011-02-26T09:01:54Z</time>
      </trkpt>
      <trkpt lat="46.364246" lon="14.271164">
        <ele>933.5686476672</ele>
        <time>2011-02-26T09:02:08Z</time>
      </trkpt>
      <trkpt lat="46.364299" lon="14.271207">
        <ele>935.48862432</ele>
        <time>2011-02-26T09:02:23Z</time>
      </trkpt>
      <trkpt lat="46.364305" lon="14.271263">
        <ele>938.8485834624</ele>
        <time>2011-02-26T09:02:36Z</time>
      </trkpt>
      <trkpt lat="46.364293" lon="14.271274">
        <ele>938.3685892992</ele>
        <time>2011-02-26T09:02:55Z</time>
      </trkpt>
      <trkpt lat="46.364293" lon="14.271274">
        <ele>937.888595136</ele>
        <time>2011-02-26T09:03:22Z</time>
      </trkpt>
      <trkpt lat="46.364266" lon="14.271307">
        <ele>938.8485834624</ele>
        <time>2011-02-26T09:03:48Z</time>
      </trkpt>
      <trkpt lat="46.364240" lon="14.271398">
        <ele>940.2985658304</ele>
        <time>2011-02-26T09:04:01Z</time>
      </trkpt>
      <trkpt lat="46.364260" lon="14.271465">
        <ele>942.2185424832</ele>
        <time>2011-02-26T09:04:16Z</time>
      </trkpt>
      <trkpt lat="46.364348" lon="14.271471">
        <ele>943.6585249728</ele>
        <time>2011-02-26T09:04:31Z</time>
      </trkpt>
      <trkpt lat="46.364394" lon="14.271468">
        <ele>946.0584957888</ele>
        <time>2011-02-26T09:04:44Z</time>
      </trkpt>
      <trkpt lat="46.364405" lon="14.271526">
        <ele>947.98847232</ele>
        <time>2011-02-26T09:04:58Z</time>
      </trkpt>
      <trkpt lat="46.364440" lon="14.271562">
        <ele>949.9084489728</ele>
        <time>2011-02-26T09:05:14Z</time>
      </trkpt>
      <trkpt lat="46.364482" lon="14.271613">
        <ele>951.8284256256</ele>
        <time>2011-02-26T09:05:28Z</time>
      </trkpt>
      <trkpt lat="46.364493" lon="14.271641">
        <ele>953.7584021568</ele>
        <time>2011-02-26T09:05:34Z</time>
      </trkpt>
      <trkpt lat="46.364492" lon="14.271702">
        <ele>955.6783788096</ele>
        <time>2011-02-26T09:05:45Z</time>
      </trkpt>
      <trkpt lat="46.364489" lon="14.271743">
        <ele>957.1183612992</ele>
        <time>2011-02-26T09:05:53Z</time>
      </trkpt>
      <trkpt lat="46.364476" lon="14.271779">
        <ele>958.0783496256</ele>
        <time>2011-02-26T09:06:05Z</time>
      </trkpt>
      <trkpt lat="46.364476" lon="14.271779">
        <ele>957.5983554624</ele>
        <time>2011-02-26T09:06:31Z</time>
      </trkpt>
      <trkpt lat="46.364479" lon="14.271806">
        <ele>958.5583437888</ele>
        <time>2011-02-26T09:06:50Z</time>
      </trkpt>
      <trkpt lat="46.364482" lon="14.271821">
        <ele>959.038337952</ele>
        <time>2011-02-26T09:07:06Z</time>
      </trkpt>
      <trkpt lat="46.364489" lon="14.271874">
        <ele>959.5183321152</ele>
        <time>2011-02-26T09:07:21Z</time>
      </trkpt>
      <trkpt lat="46.364489" lon="14.271874">
        <ele>959.9983262784</ele>
        <time>2011-02-26T09:07:45Z</time>
      </trkpt>
      <trkpt lat="46.364489" lon="14.271874">
        <ele>959.5183321152</ele>
        <time>2011-02-26T09:08:15Z</time>
      </trkpt>
      <trkpt lat="46.364498" lon="14.271903">
        <ele>960.4783204416</ele>
        <time>2011-02-26T09:08:38Z</time>
      </trkpt>
      <trkpt lat="46.364507" lon="14.272000">
        <ele>962.888291136</ele>
        <time>2011-02-26T09:08:54Z</time>
      </trkpt>
      <trkpt lat="46.364507" lon="14.272010">
        <ele>963.3682852992</ele>
        <time>2011-02-26T09:08:54Z</time>
      </trkpt>
      <trkpt lat="46.364509" lon="14.272026">
        <ele>963.8482794624</ele>
        <time>2011-02-26T09:08:58Z</time>
      </trkpt>
      <trkpt lat="46.364520" lon="14.272080">
        <ele>965.288261952</ele>
        <time>2011-02-26T09:09:16Z</time>
      </trkpt>
      <trkpt lat="46.364527" lon="14.272115">
        <ele>967.2082386048</ele>
        <time>2011-02-26T09:09:33Z</time>
      </trkpt>
      <trkpt lat="46.364522" lon="14.272150">
        <ele>968.1682269312</ele>
        <time>2011-02-26T09:09:50Z</time>
      </trkpt>
      <trkpt lat="46.364521" lon="14.272156">
        <ele>969.138215136</ele>
        <time>2011-02-26T09:10:07Z</time>
      </trkpt>
      <trkpt lat="46.364525" lon="14.272211">
        <ele>972.0181801152</ele>
        <time>2011-02-26T09:10:21Z</time>
      </trkpt>
      <trkpt lat="46.364507" lon="14.272315">
        <ele>973.4581626048</ele>
        <time>2011-02-26T09:10:34Z</time>
      </trkpt>
      <trkpt lat="46.364508" lon="14.272369">
        <ele>974.8981450944</ele>
        <time>2011-02-26T09:10:46Z</time>
      </trkpt>
      <trkpt lat="46.364512" lon="14.272399">
        <ele>975.8681332992</ele>
        <time>2011-02-26T09:10:57Z</time>
      </trkpt>
      <trkpt lat="46.364512" lon="14.272497">
        <ele>977.3081157888</ele>
        <time>2011-02-26T09:11:11Z</time>
      </trkpt>
      <trkpt lat="46.364522" lon="14.272575">
        <ele>977.788109952</ele>
        <time>2011-02-26T09:11:28Z</time>
      </trkpt>
      <trkpt lat="46.364528" lon="14.272630">
        <ele>980.188080768</ele>
        <time>2011-02-26T09:11:42Z</time>
      </trkpt>
      <trkpt lat="46.364528" lon="14.272630">
        <ele>979.7080866048</ele>
        <time>2011-02-26T09:12:03Z</time>
      </trkpt>
      <trkpt lat="46.364529" lon="14.272630">
        <ele>979.7080866048</ele>
        <time>2011-02-26T09:12:29Z</time>
      </trkpt>
      <trkpt lat="46.364531" lon="14.272630">
        <ele>978.2681041152</ele>
        <time>2011-02-26T09:12:49Z</time>
      </trkpt>
      <trkpt lat="46.364531" lon="14.272630">
        <ele>981.6280632576</ele>
        <time>2011-02-26T09:12:53Z</time>
      </trkpt>
      <trkpt lat="46.364531" lon="14.272630">
        <ele>978.2681041152</ele>
        <time>2011-02-26T09:12:54Z</time>
      </trkpt>
      <trkpt lat="46.364535" lon="14.272628">
        <ele>979.7080866048</ele>
        <time>2011-02-26T09:13:12Z</time>
      </trkpt>
      <trkpt lat="46.364531" lon="14.272633">
        <ele>976.3481274624</ele>
        <time>2011-02-26T09:13:19Z</time>
      </trkpt>
      <trkpt lat="46.364531" lon="14.272633">
        <ele>979.7080866048</ele>
        <time>2011-02-26T09:13:20Z</time>
      </trkpt>
      <trkpt lat="46.364533" lon="14.272638">
        <ele>979.2280924416</ele>
        <time>2011-02-26T09:13:21Z</time>
      </trkpt>
      <trkpt lat="46.364531" lon="14.272731">
        <ele>981.1480690944</ele>
        <time>2011-02-26T09:13:38Z</time>
      </trkpt>
      <trkpt lat="46.364527" lon="14.272832">
        <ele>983.5580397888</ele>
        <time>2011-02-26T09:13:54Z</time>
      </trkpt>
      <trkpt lat="46.364525" lon="14.272881">
        <ele>984.5180281152</ele>
        <time>2011-02-26T09:14:14Z</time>
      </trkpt>
      <trkpt lat="46.364536" lon="14.272957">
        <ele>986.438004768</ele>
        <time>2011-02-26T09:14:28Z</time>
      </trkpt>
      <trkpt lat="46.364546" lon="14.273058">
        <ele>988.837975584</ele>
        <time>2011-02-26T09:14:45Z</time>
      </trkpt>
      <trkpt lat="46.364557" lon="14.273123">
        <ele>989.3179697472</ele>
        <time>2011-02-26T09:15:00Z</time>
      </trkpt>
      <trkpt lat="46.364577" lon="14.273242">
        <ele>989.7979639104</ele>
        <time>2011-02-26T09:15:16Z</time>
      </trkpt>
      <trkpt lat="46.364577" lon="14.273258">
        <ele>991.2479462784</ele>
        <time>2011-02-26T09:15:46Z</time>
      </trkpt>
      <trkpt lat="46.364583" lon="14.273387">
        <ele>994.1279112576</ele>
        <time>2011-02-26T09:16:02Z</time>
      </trkpt>
      <trkpt lat="46.364581" lon="14.273459">
        <ele>995.5678937472</ele>
        <time>2011-02-26T09:16:20Z</time>
      </trkpt>
      <trkpt lat="46.364566" lon="14.273608">
        <ele>998.937852768</ele>
        <time>2011-02-26T09:16:32Z</time>
      </trkpt>
      <trkpt lat="46.364539" lon="14.273775">
        <ele>1000.3778352576</ele>
        <time>2011-02-26T09:16:48Z</time>
      </trkpt>
      <trkpt lat="46.364505" lon="14.273881">
        <ele>1002.7778060736</ele>
        <time>2011-02-26T09:17:03Z</time>
      </trkpt>
      <trkpt lat="46.364497" lon="14.273914">
        <ele>1005.6677709312</ele>
        <time>2011-02-26T09:17:16Z</time>
      </trkpt>
      <trkpt lat="46.364540" lon="14.273938">
        <ele>1007.587747584</ele>
        <time>2011-02-26T09:17:34Z</time>
      </trkpt>
      <trkpt lat="46.364597" lon="14.273967">
        <ele>1009.5077242368</ele>
        <time>2011-02-26T09:17:47Z</time>
      </trkpt>
      <trkpt lat="46.364608" lon="14.273973">
        <ele>1009.9877184</ele>
        <time>2011-02-26T09:18:05Z</time>
      </trkpt>
      <trkpt lat="46.364609" lon="14.273981">
        <ele>1010.4677125632</ele>
        <time>2011-02-26T09:18:18Z</time>
      </trkpt>
      <trkpt lat="46.364619" lon="14.274021">
        <ele>1011.4277008896</ele>
        <time>2011-02-26T09:18:44Z</time>
      </trkpt>
      <trkpt lat="46.364581" lon="14.274058">
        <ele>1011.4277008896</ele>
        <time>2011-02-26T09:18:52Z</time>
      </trkpt>
      <trkpt lat="46.364551" lon="14.274073">
        <ele>1011.9176949312</ele>
        <time>2011-02-26T09:18:55Z</time>
      </trkpt>
      <trkpt lat="46.364490" lon="14.274099">
        <ele>1012.3976890944</ele>
        <time>2011-02-26T09:19:03Z</time>
      </trkpt>
      <trkpt lat="46.364457" lon="14.274110">
        <ele>1011.9176949312</ele>
        <time>2011-02-26T09:19:06Z</time>
      </trkpt>
      <trkpt lat="46.364367" lon="14.274139">
        <ele>1012.3976890944</ele>
        <time>2011-02-26T09:19:15Z</time>
      </trkpt>
      <trkpt lat="46.364350" lon="14.274152">
        <ele>1013.3576774208</ele>
        <time>2011-02-26T09:19:17Z</time>
      </trkpt>
      <trkpt lat="46.364274" lon="14.274228">
        <ele>1013.3576774208</ele>
        <time>2011-02-26T09:19:30Z</time>
      </trkpt>
      <trkpt lat="46.364255" lon="14.274256">
        <ele>1012.8776832576</ele>
        <time>2011-02-26T09:19:33Z</time>
      </trkpt>
      <trkpt lat="46.364245" lon="14.274381">
        <ele>1013.3576774208</ele>
        <time>2011-02-26T09:19:45Z</time>
      </trkpt>
      <trkpt lat="46.364245" lon="14.274381">
        <ele>1012.8776832576</ele>
        <time>2011-02-26T09:20:05Z</time>
      </trkpt>
      <trkpt lat="46.364225" lon="14.274442">
        <ele>1012.3976890944</ele>
        <time>2011-02-26T09:20:17Z</time>
      </trkpt>
      <trkpt lat="46.364207" lon="14.274439">
        <ele>1011.4277008896</ele>
        <time>2011-02-26T09:20:33Z</time>
      </trkpt>
      <trkpt lat="46.364207" lon="14.274442">
        <ele>1011.4277008896</ele>
        <time>2011-02-26T09:20:55Z</time>
      </trkpt>
      <trkpt lat="46.364210" lon="14.274446">
        <ele>1011.4277008896</ele>
        <time>2011-02-26T09:21:14Z</time>
      </trkpt>
      <trkpt lat="46.364234" lon="14.274388">
        <ele>1012.8776832576</ele>
        <time>2011-02-26T09:21:32Z</time>
      </trkpt>
      <trkpt lat="46.364235" lon="14.274324">
        <ele>1008.0677417472</ele>
        <time>2011-02-26T09:21:37Z</time>
      </trkpt>
      <trkpt lat="46.364235" lon="14.274324">
        <ele>1015.7576482368</ele>
        <time>2011-02-26T09:21:38Z</time>
      </trkpt>
      <trkpt lat="46.364235" lon="14.274324">
        <ele>1012.3976890944</ele>
        <time>2011-02-26T09:21:40Z</time>
      </trkpt>
      <trkpt lat="46.364259" lon="14.274231">
        <ele>1012.3976890944</ele>
        <time>2011-02-26T09:21:54Z</time>
      </trkpt>
      <trkpt lat="46.364276" lon="14.274215">
        <ele>1011.4277008896</ele>
        <time>2011-02-26T09:22:12Z</time>
      </trkpt>
      <trkpt lat="46.364286" lon="14.274212">
        <ele>1010.9477067264</ele>
        <time>2011-02-26T09:22:31Z</time>
      </trkpt>
      <trkpt lat="46.364376" lon="14.274188">
        <ele>1010.9477067264</ele>
        <time>2011-02-26T09:22:47Z</time>
      </trkpt>
      <trkpt lat="46.364444" lon="14.274173">
        <ele>1009.5077242368</ele>
        <time>2011-02-26T09:23:01Z</time>
      </trkpt>
      <trkpt lat="46.364496" lon="14.274117">
        <ele>1008.5477359104</ele>
        <time>2011-02-26T09:23:06Z</time>
      </trkpt>
      <trkpt lat="46.364520" lon="14.274074">
        <ele>1008.0677417472</ele>
        <time>2011-02-26T09:23:09Z</time>
      </trkpt>
      <trkpt lat="46.364527" lon="14.274040">
        <ele>1008.0677417472</ele>
        <time>2011-02-26T09:23:10Z</time>
      </trkpt>
      <trkpt lat="46.364623" lon="14.273970">
        <ele>1008.0677417472</ele>
        <time>2011-02-26T09:23:24Z</time>
      </trkpt>
      <trkpt lat="46.364638" lon="14.273959">
        <ele>1010.9477067264</ele>
        <time>2011-02-26T09:23:28Z</time>
      </trkpt>
      <trkpt lat="46.364638" lon="14.273959">
        <ele>1012.3976890944</ele>
        <time>2011-02-26T09:23:42Z</time>
      </trkpt>
      <trkpt lat="46.364649" lon="14.273954">
        <ele>1011.9176949312</ele>
        <time>2011-02-26T09:23:57Z</time>
      </trkpt>
      <trkpt lat="46.364810" lon="14.273853">
        <ele>1013.837671584</ele>
        <time>2011-02-26T09:24:15Z</time>
      </trkpt>
      <trkpt lat="46.364903" lon="14.273813">
        <ele>1016.2376424</ele>
        <time>2011-02-26T09:24:31Z</time>
      </trkpt>
      <trkpt lat="46.364925" lon="14.273773">
        <ele>1018.637613216</ele>
        <time>2011-02-26T09:24:47Z</time>
      </trkpt>
      <trkpt lat="46.364968" lon="14.273709">
        <ele>1020.5675897472</ele>
        <time>2011-02-26T09:25:05Z</time>
      </trkpt>
      <trkpt lat="46.364976" lon="14.273711">
        <ele>1021.5275780736</ele>
        <time>2011-02-26T09:25:09Z</time>
      </trkpt>
      <trkpt lat="46.365023" lon="14.273648">
        <ele>1023.4475547264</ele>
        <time>2011-02-26T09:25:22Z</time>
      </trkpt>
      <trkpt lat="46.365073" lon="14.273554">
        <ele>1024.887537216</ele>
        <time>2011-02-26T09:25:36Z</time>
      </trkpt>
      <trkpt lat="46.365083" lon="14.273541">
        <ele>1027.7775020736</ele>
        <time>2011-02-26T09:25:52Z</time>
      </trkpt>
      <trkpt lat="46.365086" lon="14.273537">
        <ele>1030.1774728896</ele>
        <time>2011-02-26T09:26:11Z</time>
      </trkpt>
      <trkpt lat="46.365201" lon="14.273453">
        <ele>1032.0974495424</ele>
        <time>2011-02-26T09:26:31Z</time>
      </trkpt>
      <trkpt lat="46.365218" lon="14.273418">
        <ele>1033.537432032</ele>
        <time>2011-02-26T09:26:46Z</time>
      </trkpt>
      <trkpt lat="46.365309" lon="14.273333">
        <ele>1034.0274260736</ele>
        <time>2011-02-26T09:27:05Z</time>
      </trkpt>
      <trkpt lat="46.365374" lon="14.273148">
        <ele>1034.0274260736</ele>
        <time>2011-02-26T09:27:17Z</time>
      </trkpt>
      <trkpt lat="46.365386" lon="14.273128">
        <ele>1033.537432032</ele>
        <time>2011-02-26T09:27:31Z</time>
      </trkpt>
      <trkpt lat="46.365415" lon="14.273086">
        <ele>1032.5774437056</ele>
        <time>2011-02-26T09:27:40Z</time>
      </trkpt>
      <trkpt lat="46.365534" lon="14.272994">
        <ele>1030.6574670528</ele>
        <time>2011-02-26T09:27:52Z</time>
      </trkpt>
      <trkpt lat="46.365584" lon="14.272969">
        <ele>1030.6574670528</ele>
        <time>2011-02-26T09:28:06Z</time>
      </trkpt>
      <trkpt lat="46.365615" lon="14.272947">
        <ele>1030.6574670528</ele>
        <time>2011-02-26T09:28:07Z</time>
      </trkpt>
      <trkpt lat="46.365693" lon="14.272858">
        <ele>1031.137461216</ele>
        <time>2011-02-26T09:28:19Z</time>
      </trkpt>
      <trkpt lat="46.365830" lon="14.272755">
        <ele>1031.137461216</ele>
        <time>2011-02-26T09:28:29Z</time>
      </trkpt>
      <trkpt lat="46.365944" lon="14.272711">
        <ele>1032.0974495424</ele>
        <time>2011-02-26T09:28:42Z</time>
      </trkpt>
      <trkpt lat="46.365993" lon="14.272702">
        <ele>1030.1774728896</ele>
        <time>2011-02-26T09:28:53Z</time>
      </trkpt>
      <trkpt lat="46.366039" lon="14.272689">
        <ele>1031.137461216</ele>
        <time>2011-02-26T09:29:02Z</time>
      </trkpt>
      <trkpt lat="46.366141" lon="14.272587">
        <ele>1031.137461216</ele>
        <time>2011-02-26T09:29:15Z</time>
      </trkpt>
      <trkpt lat="46.366237" lon="14.272516">
        <ele>1031.6174553792</ele>
        <time>2011-02-26T09:29:28Z</time>
      </trkpt>
      <trkpt lat="46.366304" lon="14.272472">
        <ele>1032.5774437056</ele>
        <time>2011-02-26T09:29:40Z</time>
      </trkpt>
      <trkpt lat="46.366307" lon="14.272468">
        <ele>1033.537432032</ele>
        <time>2011-02-26T09:29:44Z</time>
      </trkpt>
      <trkpt lat="46.366335" lon="14.272444">
        <ele>1033.537432032</ele>
        <time>2011-02-26T09:29:48Z</time>
      </trkpt>
      <trkpt lat="46.366350" lon="14.272434">
        <ele>1032.5774437056</ele>
        <time>2011-02-26T09:29:52Z</time>
      </trkpt>
      <trkpt lat="46.366492" lon="14.272330">
        <ele>1034.5074202368</ele>
        <time>2011-02-26T09:30:07Z</time>
      </trkpt>
      <trkpt lat="46.366533" lon="14.272287">
        <ele>1036.4273968896</ele>
        <time>2011-02-26T09:30:21Z</time>
      </trkpt>
      <trkpt lat="46.366568" lon="14.272264">
        <ele>1036.4273968896</ele>
        <time>2011-02-26T09:30:37Z</time>
      </trkpt>
      <trkpt lat="46.366568" lon="14.272264">
        <ele>1036.9073910528</ele>
        <time>2011-02-26T09:31:03Z</time>
      </trkpt>
      <trkpt lat="46.366585" lon="14.272233">
        <ele>1036.9073910528</ele>
        <time>2011-02-26T09:31:24Z</time>
      </trkpt>
      <trkpt lat="46.366585" lon="14.272233">
        <ele>1038.3473735424</ele>
        <time>2011-02-26T09:31:28Z</time>
      </trkpt>
      <trkpt lat="46.366595" lon="14.272229">
        <ele>1038.3473735424</ele>
        <time>2011-02-26T09:31:43Z</time>
      </trkpt>
      <trkpt lat="46.366603" lon="14.272221">
        <ele>1041.2373384</ele>
        <time>2011-02-26T09:31:55Z</time>
      </trkpt>
      <trkpt lat="46.366621" lon="14.272146">
        <ele>1042.1973267264</ele>
        <time>2011-02-26T09:32:09Z</time>
      </trkpt>
      <trkpt lat="46.366651" lon="14.272101">
        <ele>1043.637309216</ele>
        <time>2011-02-26T09:32:20Z</time>
      </trkpt>
      <trkpt lat="46.366670" lon="14.272089">
        <ele>1046.5172741952</ele>
        <time>2011-02-26T09:32:34Z</time>
      </trkpt>
      <trkpt lat="46.366694" lon="14.272073">
        <ele>1048.9272448896</ele>
        <time>2011-02-26T09:32:49Z</time>
      </trkpt>
      <trkpt lat="46.366776" lon="14.271996">
        <ele>1048.9272448896</ele>
        <time>2011-02-26T09:33:04Z</time>
      </trkpt>
      <trkpt lat="46.366804" lon="14.271950">
        <ele>1051.3272157056</ele>
        <time>2011-02-26T09:33:16Z</time>
      </trkpt>
      <trkpt lat="46.366803" lon="14.271950">
        <ele>1051.8072098688</ele>
        <time>2011-02-26T09:33:38Z</time>
      </trkpt>
      <trkpt lat="46.366846" lon="14.271870">
        <ele>1053.2471923584</ele>
        <time>2011-02-26T09:33:50Z</time>
      </trkpt>
      <trkpt lat="46.366880" lon="14.271799">
        <ele>1053.7271865216</ele>
        <time>2011-02-26T09:34:01Z</time>
      </trkpt>
      <trkpt lat="46.366872" lon="14.271830">
        <ele>1052.7671981952</ele>
        <time>2011-02-26T09:34:20Z</time>
      </trkpt>
      <trkpt lat="46.366869" lon="14.271847">
        <ele>1052.287204032</ele>
        <time>2011-02-26T09:34:35Z</time>
      </trkpt>
      <trkpt lat="46.366889" lon="14.271770">
        <ele>1053.2471923584</ele>
        <time>2011-02-26T09:34:51Z</time>
      </trkpt>
      <trkpt lat="46.366896" lon="14.271730">
        <ele>1055.6571630528</ele>
        <time>2011-02-26T09:35:07Z</time>
      </trkpt>
      <trkpt lat="46.366978" lon="14.271596">
        <ele>1056.6171513792</ele>
        <time>2011-02-26T09:35:19Z</time>
      </trkpt>
      <trkpt lat="46.367049" lon="14.271422">
        <ele>1057.0971455424</ele>
        <time>2011-02-26T09:35:33Z</time>
      </trkpt>
      <trkpt lat="46.367053" lon="14.271393">
        <ele>1058.0571338688</ele>
        <time>2011-02-26T09:35:46Z</time>
      </trkpt>
      <trkpt lat="46.367059" lon="14.271353">
        <ele>1060.4571046848</ele>
        <time>2011-02-26T09:36:02Z</time>
      </trkpt>
      <trkpt lat="46.367092" lon="14.271261">
        <ele>1061.8970871744</ele>
        <time>2011-02-26T09:36:17Z</time>
      </trkpt>
      <trkpt lat="46.367112" lon="14.271176">
        <ele>1064.787052032</ele>
        <time>2011-02-26T09:36:36Z</time>
      </trkpt>
      <trkpt lat="46.367124" lon="14.271116">
        <ele>1066.2270345216</ele>
        <time>2011-02-26T09:36:51Z</time>
      </trkpt>
      <trkpt lat="46.367175" lon="14.270929">
        <ele>1067.187022848</ele>
        <time>2011-02-26T09:37:06Z</time>
      </trkpt>
      <trkpt lat="46.367196" lon="14.270857">
        <ele>1068.6270053376</ele>
        <time>2011-02-26T09:37:19Z</time>
      </trkpt>
      <trkpt lat="46.367213" lon="14.270798">
        <ele>1069.586993664</ele>
        <time>2011-02-26T09:37:33Z</time>
      </trkpt>
      <trkpt lat="46.367234" lon="14.270720">
        <ele>1072.4769585216</ele>
        <time>2011-02-26T09:37:46Z</time>
      </trkpt>
      <trkpt lat="46.367263" lon="14.270635">
        <ele>1073.436946848</ele>
        <time>2011-02-26T09:38:01Z</time>
      </trkpt>
      <trkpt lat="46.367264" lon="14.270600">
        <ele>1074.3969351744</ele>
        <time>2011-02-26T09:38:16Z</time>
      </trkpt>
      <trkpt lat="46.367278" lon="14.270487">
        <ele>1076.7969059904</ele>
        <time>2011-02-26T09:38:31Z</time>
      </trkpt>
      <trkpt lat="46.367287" lon="14.270439">
        <ele>1078.2468883584</ele>
        <time>2011-02-26T09:38:46Z</time>
      </trkpt>
      <trkpt lat="46.367287" lon="14.270439">
        <ele>1078.2468883584</ele>
        <time>2011-02-26T09:39:11Z</time>
      </trkpt>
      <trkpt lat="46.367293" lon="14.270419">
        <ele>1077.2769001536</ele>
        <time>2011-02-26T09:39:45Z</time>
      </trkpt>
      <trkpt lat="46.367299" lon="14.270415">
        <ele>1077.2769001536</ele>
        <time>2011-02-26T09:40:15Z</time>
      </trkpt>
      <trkpt lat="46.367317" lon="14.270401">
        <ele>1077.7668941952</ele>
        <time>2011-02-26T09:40:39Z</time>
      </trkpt>
      <trkpt lat="46.367343" lon="14.270362">
        <ele>1079.2068766848</ele>
        <time>2011-02-26T09:40:53Z</time>
      </trkpt>
      <trkpt lat="46.367372" lon="14.270287">
        <ele>1082.5668358272</ele>
        <time>2011-02-26T09:41:06Z</time>
      </trkpt>
      <trkpt lat="46.367380" lon="14.270243">
        <ele>1083.5268241536</ele>
        <time>2011-02-26T09:41:20Z</time>
      </trkpt>
      <trkpt lat="46.367456" lon="14.270083">
        <ele>1085.4568006848</ele>
        <time>2011-02-26T09:41:33Z</time>
      </trkpt>
      <trkpt lat="46.367529" lon="14.269941">
        <ele>1085.936794848</ele>
        <time>2011-02-26T09:41:48Z</time>
      </trkpt>
      <trkpt lat="46.367574" lon="14.269831">
        <ele>1086.8967831744</ele>
        <time>2011-02-26T09:42:01Z</time>
      </trkpt>
      <trkpt lat="46.367645" lon="14.269695">
        <ele>1087.8567715008</ele>
        <time>2011-02-26T09:42:16Z</time>
      </trkpt>
      <trkpt lat="46.367652" lon="14.269682">
        <ele>1087.3767773376</ele>
        <time>2011-02-26T09:42:32Z</time>
      </trkpt>
      <trkpt lat="46.367698" lon="14.269601">
        <ele>1089.2967539904</ele>
        <time>2011-02-26T09:42:47Z</time>
      </trkpt>
      <trkpt lat="46.367736" lon="14.269487">
        <ele>1091.2167306432</ele>
        <time>2011-02-26T09:43:01Z</time>
      </trkpt>
      <trkpt lat="46.367788" lon="14.269361">
        <ele>1092.6667130112</ele>
        <time>2011-02-26T09:43:17Z</time>
      </trkpt>
      <trkpt lat="46.367795" lon="14.269351">
        <ele>1094.1066955008</ele>
        <time>2011-02-26T09:43:40Z</time>
      </trkpt>
      <trkpt lat="46.367820" lon="14.269268">
        <ele>1096.5066663168</ele>
        <time>2011-02-26T09:43:56Z</time>
      </trkpt>
      <trkpt lat="46.367839" lon="14.269221">
        <ele>1098.9066371328</ele>
        <time>2011-02-26T09:44:11Z</time>
      </trkpt>
      <trkpt lat="46.367851" lon="14.269176">
        <ele>1101.7966019904</ele>
        <time>2011-02-26T09:44:29Z</time>
      </trkpt>
      <trkpt lat="46.367869" lon="14.269136">
        <ele>1102.2765961536</ele>
        <time>2011-02-26T09:44:33Z</time>
      </trkpt>
      <trkpt lat="46.367902" lon="14.269087">
        <ele>1102.7565903168</ele>
        <time>2011-02-26T09:44:50Z</time>
      </trkpt>
      <trkpt lat="46.367902" lon="14.269087">
        <ele>1102.7565903168</ele>
        <time>2011-02-26T09:45:17Z</time>
      </trkpt>
      <trkpt lat="46.367907" lon="14.269074">
        <ele>1104.1965728064</ele>
        <time>2011-02-26T09:45:29Z</time>
      </trkpt>
      <trkpt lat="46.367914" lon="14.268980">
        <ele>1106.5965436224</ele>
        <time>2011-02-26T09:45:44Z</time>
      </trkpt>
      <trkpt lat="46.367965" lon="14.268889">
        <ele>1108.5265201536</ele>
        <time>2011-02-26T09:45:59Z</time>
      </trkpt>
      <trkpt lat="46.367974" lon="14.268843">
        <ele>1109.0065143168</ele>
        <time>2011-02-26T09:46:15Z</time>
      </trkpt>
      <trkpt lat="46.367948" lon="14.268787">
        <ele>1111.4064851328</ele>
        <time>2011-02-26T09:46:31Z</time>
      </trkpt>
      <trkpt lat="46.367948" lon="14.268707">
        <ele>1112.3664734592</ele>
        <time>2011-02-26T09:46:46Z</time>
      </trkpt>
      <trkpt lat="46.368017" lon="14.268556">
        <ele>1114.2964499904</ele>
        <time>2011-02-26T09:47:00Z</time>
      </trkpt>
      <trkpt lat="46.368064" lon="14.268487">
        <ele>1115.2564383168</ele>
        <time>2011-02-26T09:47:05Z</time>
      </trkpt>
      <trkpt lat="46.368175" lon="14.268425">
        <ele>1115.73643248</ele>
        <time>2011-02-26T09:47:20Z</time>
      </trkpt>
      <trkpt lat="46.368250" lon="14.268405">
        <ele>1117.1764149696</ele>
        <time>2011-02-26T09:47:35Z</time>
      </trkpt>
      <trkpt lat="46.368338" lon="14.268350">
        <ele>1118.136403296</ele>
        <time>2011-02-26T09:47:47Z</time>
      </trkpt>
      <trkpt lat="46.368432" lon="14.268285">
        <ele>1118.6163974592</ele>
        <time>2011-02-26T09:47:55Z</time>
      </trkpt>
      <trkpt lat="46.368627" lon="14.268063">
        <ele>1121.0163682752</ele>
        <time>2011-02-26T09:48:09Z</time>
      </trkpt>
      <trkpt lat="46.368690" lon="14.268004">
        <ele>1121.0163682752</ele>
        <time>2011-02-26T09:48:26Z</time>
      </trkpt>
      <trkpt lat="46.368747" lon="14.267953">
        <ele>1121.5063623168</ele>
        <time>2011-02-26T09:48:49Z</time>
      </trkpt>
      <trkpt lat="46.368755" lon="14.267921">
        <ele>1122.9463448064</ele>
        <time>2011-02-26T09:49:07Z</time>
      </trkpt>
      <trkpt lat="46.368797" lon="14.267827">
        <ele>1124.8663214592</ele>
        <time>2011-02-26T09:49:17Z</time>
      </trkpt>
      <trkpt lat="46.368827" lon="14.267770">
        <ele>1126.3063039488</ele>
        <time>2011-02-26T09:49:34Z</time>
      </trkpt>
      <trkpt lat="46.368849" lon="14.267729">
        <ele>1129.1962688064</ele>
        <time>2011-02-26T09:49:48Z</time>
      </trkpt>
      <trkpt lat="46.368894" lon="14.267636">
        <ele>1130.636251296</ele>
        <time>2011-02-26T09:50:02Z</time>
      </trkpt>
      <trkpt lat="46.368928" lon="14.267552">
        <ele>1133.9962104384</ele>
        <time>2011-02-26T09:50:14Z</time>
      </trkpt>
      <trkpt lat="46.368983" lon="14.267487">
        <ele>1133.9962104384</ele>
        <time>2011-02-26T09:50:33Z</time>
      </trkpt>
      <trkpt lat="46.368984" lon="14.267487">
        <ele>1134.4762046016</ele>
        <time>2011-02-26T09:50:57Z</time>
      </trkpt>
      <trkpt lat="46.368984" lon="14.267487">
        <ele>1133.9962104384</ele>
        <time>2011-02-26T09:51:23Z</time>
      </trkpt>
      <trkpt lat="46.368983" lon="14.267486">
        <ele>1133.5162162752</ele>
        <time>2011-02-26T09:51:53Z</time>
      </trkpt>
      <trkpt lat="46.368982" lon="14.267488">
        <ele>1133.9962104384</ele>
        <time>2011-02-26T09:52:24Z</time>
      </trkpt>
      <trkpt lat="46.368982" lon="14.267488">
        <ele>1133.9962104384</ele>
        <time>2011-02-26T09:52:52Z</time>
      </trkpt>
      <trkpt lat="46.368982" lon="14.267482">
        <ele>1133.9962104384</ele>
        <time>2011-02-26T09:53:22Z</time>
      </trkpt>
      <trkpt lat="46.369004" lon="14.267467">
        <ele>1135.436192928</ele>
        <time>2011-02-26T09:53:38Z</time>
      </trkpt>
      <trkpt lat="46.369071" lon="14.267348">
        <ele>1137.3661694592</ele>
        <time>2011-02-26T09:53:51Z</time>
      </trkpt>
      <trkpt lat="46.369139" lon="14.267306">
        <ele>1139.7661402752</ele>
        <time>2011-02-26T09:54:05Z</time>
      </trkpt>
      <trkpt lat="46.369196" lon="14.267308">
        <ele>1140.7261286016</ele>
        <time>2011-02-26T09:54:21Z</time>
      </trkpt>
      <trkpt lat="46.369241" lon="14.267280">
        <ele>1143.1260994176</ele>
        <time>2011-02-26T09:54:35Z</time>
      </trkpt>
      <trkpt lat="46.369286" lon="14.267224">
        <ele>1146.4960584384</ele>
        <time>2011-02-26T09:54:51Z</time>
      </trkpt>
      <trkpt lat="46.369368" lon="14.267114">
        <ele>1146.4960584384</ele>
        <time>2011-02-26T09:55:03Z</time>
      </trkpt>
      <trkpt lat="46.369386" lon="14.267082">
        <ele>1147.4560467648</ele>
        <time>2011-02-26T09:55:19Z</time>
      </trkpt>
      <trkpt lat="46.369398" lon="14.267108">
        <ele>1146.9760526016</ele>
        <time>2011-02-26T09:55:30Z</time>
      </trkpt>
      <trkpt lat="46.369470" lon="14.267015">
        <ele>1146.0160642752</ele>
        <time>2011-02-26T09:55:44Z</time>
      </trkpt>
      <trkpt lat="46.369550" lon="14.266959">
        <ele>1146.4960584384</ele>
        <time>2011-02-26T09:55:56Z</time>
      </trkpt>
      <trkpt lat="46.369582" lon="14.266941">
        <ele>1146.9760526016</ele>
        <time>2011-02-26T09:56:19Z</time>
      </trkpt>
      <trkpt lat="46.369632" lon="14.266902">
        <ele>1147.4560467648</ele>
        <time>2011-02-26T09:56:38Z</time>
      </trkpt>
      <trkpt lat="46.369682" lon="14.266863">
        <ele>1149.3760234176</ele>
        <time>2011-02-26T09:56:55Z</time>
      </trkpt>
      <trkpt lat="46.369727" lon="14.266824">
        <ele>1149.8560175808</ele>
        <time>2011-02-26T09:57:10Z</time>
      </trkpt>
      <trkpt lat="46.369760" lon="14.266743">
        <ele>1151.3059999488</ele>
        <time>2011-02-26T09:57:23Z</time>
      </trkpt>
      <trkpt lat="46.369823" lon="14.266647">
        <ele>1152.2659882752</ele>
        <time>2011-02-26T09:57:37Z</time>
      </trkpt>
      <trkpt lat="46.369823" lon="14.266647">
        <ele>1152.2659882752</ele>
        <time>2011-02-26T09:58:04Z</time>
      </trkpt>
      <trkpt lat="46.369829" lon="14.266638">
        <ele>1152.2659882752</ele>
        <time>2011-02-26T09:58:28Z</time>
      </trkpt>
      <trkpt lat="46.369846" lon="14.266575">
        <ele>1153.7059707648</ele>
        <time>2011-02-26T09:58:47Z</time>
      </trkpt>
      <trkpt lat="46.369872" lon="14.266490">
        <ele>1154.185964928</ele>
        <time>2011-02-26T09:59:06Z</time>
      </trkpt>
      <trkpt lat="46.369874" lon="14.266489">
        <ele>1154.185964928</ele>
        <time>2011-02-26T09:59:33Z</time>
      </trkpt>
      <trkpt lat="46.369873" lon="14.266489">
        <ele>1154.185964928</ele>
        <time>2011-02-26T10:00:08Z</time>
      </trkpt>
      <trkpt lat="46.369872" lon="14.266494">
        <ele>1153.2259766016</ele>
        <time>2011-02-26T10:00:41Z</time>
      </trkpt>
      <trkpt lat="46.369872" lon="14.266494">
        <ele>1147.4560467648</ele>
        <time>2011-02-26T10:00:58Z</time>
      </trkpt>
      <trkpt lat="46.369872" lon="14.266494">
        <ele>1155.6259474176</ele>
        <time>2011-02-26T10:00:59Z</time>
      </trkpt>
      <trkpt lat="46.369872" lon="14.266494">
        <ele>1151.785994112</ele>
        <time>2011-02-26T10:01:01Z</time>
      </trkpt>
      <trkpt lat="46.369872" lon="14.266494">
        <ele>1153.7059707648</ele>
        <time>2011-02-26T10:01:32Z</time>
      </trkpt>
      <trkpt lat="46.369901" lon="14.266387">
        <ele>1153.7059707648</ele>
        <time>2011-02-26T10:02:00Z</time>
      </trkpt>
      <trkpt lat="46.369983" lon="14.266164">
        <ele>1155.1459532544</ele>
        <time>2011-02-26T10:02:15Z</time>
      </trkpt>
      <trkpt lat="46.370002" lon="14.266041">
        <ele>1155.1459532544</ele>
        <time>2011-02-26T10:02:23Z</time>
      </trkpt>
      <trkpt lat="46.370040" lon="14.265871">
        <ele>1155.6259474176</ele>
        <time>2011-02-26T10:02:38Z</time>
      </trkpt>
      <trkpt lat="46.370104" lon="14.265798">
        <ele>1154.6659590912</ele>
        <time>2011-02-26T10:02:50Z</time>
      </trkpt>
      <trkpt lat="46.370187" lon="14.265670">
        <ele>1156.1059415808</ele>
        <time>2011-02-26T10:03:05Z</time>
      </trkpt>
      <trkpt lat="46.370230" lon="14.265526">
        <ele>1156.585935744</ele>
        <time>2011-02-26T10:03:18Z</time>
      </trkpt>
      <trkpt lat="46.370272" lon="14.265401">
        <ele>1158.5159122752</ele>
        <time>2011-02-26T10:03:32Z</time>
      </trkpt>
      <trkpt lat="46.370327" lon="14.265242">
        <ele>1158.9959064384</ele>
        <time>2011-02-26T10:03:44Z</time>
      </trkpt>
      <trkpt lat="46.370349" lon="14.265109">
        <ele>1160.9158830912</ele>
        <time>2011-02-26T10:03:59Z</time>
      </trkpt>
      <trkpt lat="46.370347" lon="14.265085">
        <ele>1161.3958772544</ele>
        <time>2011-02-26T10:04:00Z</time>
      </trkpt>
      <trkpt lat="46.370376" lon="14.264983">
        <ele>1160.9158830912</ele>
        <time>2011-02-26T10:04:15Z</time>
      </trkpt>
      <trkpt lat="46.370403" lon="14.264955">
        <ele>1163.3158539072</ele>
        <time>2011-02-26T10:04:27Z</time>
      </trkpt>
      <trkpt lat="46.370422" lon="14.264885">
        <ele>1164.7558363968</ele>
        <time>2011-02-26T10:04:44Z</time>
      </trkpt>
      <trkpt lat="46.370436" lon="14.264820">
        <ele>1165.7258246016</ele>
        <time>2011-02-26T10:05:01Z</time>
      </trkpt>
      <trkpt lat="46.370460" lon="14.264787">
        <ele>1167.6458012544</ele>
        <time>2011-02-26T10:05:20Z</time>
      </trkpt>
      <trkpt lat="46.370493" lon="14.264707">
        <ele>1169.5657779072</ele>
        <time>2011-02-26T10:05:36Z</time>
      </trkpt>
      <trkpt lat="46.370493" lon="14.264707">
        <ele>1170.5257662336</ele>
        <time>2011-02-26T10:05:59Z</time>
      </trkpt>
      <trkpt lat="46.370544" lon="14.264630">
        <ele>1172.935736928</ele>
        <time>2011-02-26T10:06:15Z</time>
      </trkpt>
      <trkpt lat="46.370579" lon="14.264546">
        <ele>1174.8557135808</ele>
        <time>2011-02-26T10:06:30Z</time>
      </trkpt>
      <trkpt lat="46.370631" lon="14.264458">
        <ele>1176.2956960704</ele>
        <time>2011-02-26T10:06:44Z</time>
      </trkpt>
      <trkpt lat="46.370645" lon="14.264409">
        <ele>1177.2556843968</ele>
        <time>2011-02-26T10:07:04Z</time>
      </trkpt>
      <trkpt lat="46.370635" lon="14.264366">
        <ele>1177.2556843968</ele>
        <time>2011-02-26T10:07:35Z</time>
      </trkpt>
      <trkpt lat="46.370671" lon="14.264291">
        <ele>1179.6556552128</ele>
        <time>2011-02-26T10:07:50Z</time>
      </trkpt>
      <trkpt lat="46.370701" lon="14.264260">
        <ele>1181.585631744</ele>
        <time>2011-02-26T10:08:03Z</time>
      </trkpt>
      <trkpt lat="46.370758" lon="14.264197">
        <ele>1183.5056083968</ele>
        <time>2011-02-26T10:08:17Z</time>
      </trkpt>
      <trkpt lat="46.370775" lon="14.264183">
        <ele>1185.9055792128</ele>
        <time>2011-02-26T10:08:32Z</time>
      </trkpt>
      <trkpt lat="46.370827" lon="14.264131">
        <ele>1188.7955440704</ele>
        <time>2011-02-26T10:08:49Z</time>
      </trkpt>
      <trkpt lat="46.370830" lon="14.264099">
        <ele>1189.7555323968</ele>
        <time>2011-02-26T10:09:12Z</time>
      </trkpt>
      <trkpt lat="46.370830" lon="14.264099">
        <ele>1188.7955440704</ele>
        <time>2011-02-26T10:09:50Z</time>
      </trkpt>
      <trkpt lat="46.370828" lon="14.264100">
        <ele>1189.2755382336</ele>
        <time>2011-02-26T10:10:26Z</time>
      </trkpt>
      <trkpt lat="46.370826" lon="14.264099">
        <ele>1189.2755382336</ele>
        <time>2011-02-26T10:11:03Z</time>
      </trkpt>
      <trkpt lat="46.370848" lon="14.264049">
        <ele>1190.7155207232</ele>
        <time>2011-02-26T10:11:23Z</time>
      </trkpt>
      <trkpt lat="46.370877" lon="14.264022">
        <ele>1192.635497376</ele>
        <time>2011-02-26T10:11:38Z</time>
      </trkpt>
      <trkpt lat="46.370902" lon="14.263971">
        <ele>1194.5654739072</ele>
        <time>2011-02-26T10:11:54Z</time>
      </trkpt>
      <trkpt lat="46.370910" lon="14.263916">
        <ele>1196.48545056</ele>
        <time>2011-02-26T10:12:09Z</time>
      </trkpt>
      <trkpt lat="46.370957" lon="14.263814">
        <ele>1198.4054272128</ele>
        <time>2011-02-26T10:12:25Z</time>
      </trkpt>
      <trkpt lat="46.370966" lon="14.263771">
        <ele>1198.885421376</ele>
        <time>2011-02-26T10:12:43Z</time>
      </trkpt>
      <trkpt lat="46.370954" lon="14.263690">
        <ele>1201.285392192</ele>
        <time>2011-02-26T10:13:02Z</time>
      </trkpt>
      <trkpt lat="46.370968" lon="14.263616">
        <ele>1202.73537456</ele>
        <time>2011-02-26T10:13:17Z</time>
      </trkpt>
      <trkpt lat="46.370985" lon="14.263538">
        <ele>1205.6153395392</ele>
        <time>2011-02-26T10:13:33Z</time>
      </trkpt>
      <trkpt lat="46.371003" lon="14.263469">
        <ele>1208.0153103552</ele>
        <time>2011-02-26T10:13:49Z</time>
      </trkpt>
      <trkpt lat="46.371019" lon="14.263297">
        <ele>1210.4252810496</ele>
        <time>2011-02-26T10:14:05Z</time>
      </trkpt>
      <trkpt lat="46.371078" lon="14.263238">
        <ele>1212.3452577024</ele>
        <time>2011-02-26T10:14:20Z</time>
      </trkpt>
      <trkpt lat="46.371151" lon="14.263164">
        <ele>1213.785240192</ele>
        <time>2011-02-26T10:14:39Z</time>
      </trkpt>
      <trkpt lat="46.371193" lon="14.263116">
        <ele>1215.7052168448</ele>
        <time>2011-02-26T10:14:54Z</time>
      </trkpt>
      <trkpt lat="46.371290" lon="14.263013">
        <ele>1216.1952108864</ele>
        <time>2011-02-26T10:15:10Z</time>
      </trkpt>
      <trkpt lat="46.371310" lon="14.262860">
        <ele>1217.635193376</ele>
        <time>2011-02-26T10:15:25Z</time>
      </trkpt>
      <trkpt lat="46.371376" lon="14.262724">
        <ele>1217.635193376</ele>
        <time>2011-02-26T10:15:36Z</time>
      </trkpt>
      <trkpt lat="46.371452" lon="14.262606">
        <ele>1218.5951817024</ele>
        <time>2011-02-26T10:15:49Z</time>
      </trkpt>
      <trkpt lat="46.371460" lon="14.262602">
        <ele>1218.5951817024</ele>
        <time>2011-02-26T10:16:05Z</time>
      </trkpt>
      <trkpt lat="46.371468" lon="14.262596">
        <ele>1218.5951817024</ele>
        <time>2011-02-26T10:16:21Z</time>
      </trkpt>
      <trkpt lat="46.371474" lon="14.262595">
        <ele>1218.5951817024</ele>
        <time>2011-02-26T10:16:38Z</time>
      </trkpt>
      <trkpt lat="46.371466" lon="14.262586">
        <ele>1218.5951817024</ele>
        <time>2011-02-26T10:16:54Z</time>
      </trkpt>
      <trkpt lat="46.371453" lon="14.262569">
        <ele>1218.1151875392</ele>
        <time>2011-02-26T10:17:10Z</time>
      </trkpt>
      <trkpt lat="46.371477" lon="14.262505">
        <ele>1219.0751758656</ele>
        <time>2011-02-26T10:17:28Z</time>
      </trkpt>
      <trkpt lat="46.371522" lon="14.262510">
        <ele>1221.9551408448</ele>
        <time>2011-02-26T10:17:40Z</time>
      </trkpt>
      <trkpt lat="46.371527" lon="14.262511">
        <ele>1220.035164192</ele>
        <time>2011-02-26T10:18:07Z</time>
      </trkpt>
      <trkpt lat="46.371526" lon="14.262514">
        <ele>1220.5151583552</ele>
        <time>2011-02-26T10:18:38Z</time>
      </trkpt>
      <trkpt lat="46.371526" lon="14.262512">
        <ele>1220.5151583552</ele>
        <time>2011-02-26T10:19:02Z</time>
      </trkpt>
      <trkpt lat="46.371526" lon="14.262512">
        <ele>1220.035164192</ele>
        <time>2011-02-26T10:19:30Z</time>
      </trkpt>
      <trkpt lat="46.371527" lon="14.262514">
        <ele>1220.5151583552</ele>
        <time>2011-02-26T10:20:03Z</time>
      </trkpt>
      <trkpt lat="46.371526" lon="14.262512">
        <ele>1219.5551700288</ele>
        <time>2011-02-26T10:20:27Z</time>
      </trkpt>
      <trkpt lat="46.371549" lon="14.262476">
        <ele>1221.9551408448</ele>
        <time>2011-02-26T10:20:42Z</time>
      </trkpt>
      <trkpt lat="46.371549" lon="14.262476">
        <ele>1221.9551408448</ele>
        <time>2011-02-26T10:21:05Z</time>
      </trkpt>
      <trkpt lat="46.371566" lon="14.262465">
        <ele>1222.435135008</ele>
        <time>2011-02-26T10:21:20Z</time>
      </trkpt>
      <trkpt lat="46.371579" lon="14.262445">
        <ele>1222.9151291712</ele>
        <time>2011-02-26T10:21:37Z</time>
      </trkpt>
      <trkpt lat="46.371583" lon="14.262440">
        <ele>1224.3651115392</ele>
        <time>2011-02-26T10:21:59Z</time>
      </trkpt>
      <trkpt lat="46.371627" lon="14.262358">
        <ele>1225.8050940288</ele>
        <time>2011-02-26T10:22:22Z</time>
      </trkpt>
      <trkpt lat="46.371679" lon="14.262295">
        <ele>1228.2050648448</ele>
        <time>2011-02-26T10:22:35Z</time>
      </trkpt>
      <trkpt lat="46.371689" lon="14.262261">
        <ele>1230.6050356608</ele>
        <time>2011-02-26T10:22:53Z</time>
      </trkpt>
      <trkpt lat="46.371751" lon="14.262229">
        <ele>1233.0150063552</ele>
        <time>2011-02-26T10:23:09Z</time>
      </trkpt>
      <trkpt lat="46.371796" lon="14.262206">
        <ele>1234.4549888448</ele>
        <time>2011-02-26T10:23:24Z</time>
      </trkpt>
      <trkpt lat="46.371830" lon="14.262171">
        <ele>1236.8549596608</ele>
        <time>2011-02-26T10:23:38Z</time>
      </trkpt>
      <trkpt lat="46.371868" lon="14.262162">
        <ele>1239.2649303552</ele>
        <time>2011-02-26T10:23:55Z</time>
      </trkpt>
      <trkpt lat="46.371887" lon="14.262173">
        <ele>1240.7049128448</ele>
        <time>2011-02-26T10:24:10Z</time>
      </trkpt>
      <trkpt lat="46.371930" lon="14.262181">
        <ele>1243.1048836608</ele>
        <time>2011-02-26T10:24:25Z</time>
      </trkpt>
      <trkpt lat="46.372025" lon="14.262193">
        <ele>1245.0248603136</ele>
        <time>2011-02-26T10:24:37Z</time>
      </trkpt>
      <trkpt lat="46.372058" lon="14.262190">
        <ele>1245.9948485184</ele>
        <time>2011-02-26T10:24:50Z</time>
      </trkpt>
      <trkpt lat="46.372058" lon="14.262190">
        <ele>1245.5148543552</ele>
        <time>2011-02-26T10:25:21Z</time>
      </trkpt>
      <trkpt lat="46.372084" lon="14.262193">
        <ele>1246.9548368448</ele>
        <time>2011-02-26T10:25:42Z</time>
      </trkpt>
      <trkpt lat="46.372165" lon="14.262177">
        <ele>1249.834801824</ele>
        <time>2011-02-26T10:25:58Z</time>
      </trkpt>
      <trkpt lat="46.372179" lon="14.262194">
        <ele>1251.2747843136</ele>
        <time>2011-02-26T10:26:05Z</time>
      </trkpt>
      <trkpt lat="46.372207" lon="14.262174">
        <ele>1253.684755008</ele>
        <time>2011-02-26T10:26:22Z</time>
      </trkpt>
      <trkpt lat="46.372216" lon="14.262073">
        <ele>1256.084725824</ele>
        <time>2011-02-26T10:26:37Z</time>
      </trkpt>
      <trkpt lat="46.372199" lon="14.261924">
        <ele>1257.0447141504</ele>
        <time>2011-02-26T10:26:49Z</time>
      </trkpt>
      <trkpt lat="46.372280" lon="14.261993">
        <ele>1259.4446849664</ele>
        <time>2011-02-26T10:27:07Z</time>
      </trkpt>
      <trkpt lat="46.372264" lon="14.261882">
        <ele>1260.8946673344</ele>
        <time>2011-02-26T10:27:20Z</time>
      </trkpt>
      <trkpt lat="46.372264" lon="14.261882">
        <ele>1260.8946673344</ele>
        <time>2011-02-26T10:27:47Z</time>
      </trkpt>
      <trkpt lat="46.372265" lon="14.261882">
        <ele>1260.8946673344</ele>
        <time>2011-02-26T10:28:13Z</time>
      </trkpt>
      <trkpt lat="46.372304" lon="14.261907">
        <ele>1262.8146439872</ele>
        <time>2011-02-26T10:28:33Z</time>
      </trkpt>
      <trkpt lat="46.372328" lon="14.261891">
        <ele>1265.2146148032</ele>
        <time>2011-02-26T10:28:49Z</time>
      </trkpt>
      <trkpt lat="46.372323" lon="14.261779">
        <ele>1267.6245854976</ele>
        <time>2011-02-26T10:29:06Z</time>
      </trkpt>
      <trkpt lat="46.372314" lon="14.261754">
        <ele>1268.584573824</ele>
        <time>2011-02-26T10:29:26Z</time>
      </trkpt>
      <trkpt lat="46.372360" lon="14.261763">
        <ele>1270.5045504768</ele>
        <time>2011-02-26T10:29:42Z</time>
      </trkpt>
      <trkpt lat="46.372377" lon="14.261710">
        <ele>1272.9045212928</ele>
        <time>2011-02-26T10:30:00Z</time>
      </trkpt>
      <trkpt lat="46.372395" lon="14.261759">
        <ele>1273.8645096192</ele>
        <time>2011-02-26T10:30:13Z</time>
      </trkpt>
      <trkpt lat="46.372484" lon="14.261777">
        <ele>1276.7544744768</ele>
        <time>2011-02-26T10:30:29Z</time>
      </trkpt>
      <trkpt lat="46.372581" lon="14.261777">
        <ele>1279.1544452928</ele>
        <time>2011-02-26T10:30:44Z</time>
      </trkpt>
      <trkpt lat="46.372566" lon="14.261702">
        <ele>1280.1144336192</ele>
        <time>2011-02-26T10:30:59Z</time>
      </trkpt>
      <trkpt lat="46.372586" lon="14.261704">
        <ele>1281.5544161088</ele>
        <time>2011-02-26T10:31:19Z</time>
      </trkpt>
      <trkpt lat="46.372604" lon="14.261701">
        <ele>1283.0043984768</ele>
        <time>2011-02-26T10:31:37Z</time>
      </trkpt>
      <trkpt lat="46.372619" lon="14.261711">
        <ele>1284.9243751296</ele>
        <time>2011-02-26T10:31:56Z</time>
      </trkpt>
      <trkpt lat="46.372657" lon="14.261624">
        <ele>1287.3243459456</ele>
        <time>2011-02-26T10:32:11Z</time>
      </trkpt>
      <trkpt lat="46.372690" lon="14.261639">
        <ele>1289.73431664</ele>
        <time>2011-02-26T10:32:28Z</time>
      </trkpt>
      <trkpt lat="46.372728" lon="14.261692">
        <ele>1291.1742991296</ele>
        <time>2011-02-26T10:32:43Z</time>
      </trkpt>
      <trkpt lat="46.372766" lon="14.261675">
        <ele>1293.5742699456</ele>
        <time>2011-02-26T10:32:58Z</time>
      </trkpt>
      <trkpt lat="46.372751" lon="14.261576">
        <ele>1295.0142524352</ele>
        <time>2011-02-26T10:33:13Z</time>
      </trkpt>
      <trkpt lat="46.372781" lon="14.261585">
        <ele>1296.9442289664</ele>
        <time>2011-02-26T10:33:26Z</time>
      </trkpt>
      <trkpt lat="46.372787" lon="14.261624">
        <ele>1298.8642056192</ele>
        <time>2011-02-26T10:33:42Z</time>
      </trkpt>
      <trkpt lat="46.372817" lon="14.261590">
        <ele>1300.3041881088</ele>
        <time>2011-02-26T10:33:53Z</time>
      </trkpt>
      <trkpt lat="46.372835" lon="14.261531">
        <ele>1301.7441705984</ele>
        <time>2011-02-26T10:34:13Z</time>
      </trkpt>
      <trkpt lat="46.372878" lon="14.261435">
        <ele>1303.184153088</ele>
        <time>2011-02-26T10:34:31Z</time>
      </trkpt>
      <trkpt lat="46.372926" lon="14.261455">
        <ele>1305.5941237824</ele>
        <time>2011-02-26T10:34:47Z</time>
      </trkpt>
      <trkpt lat="46.372961" lon="14.261442">
        <ele>1307.034106272</ele>
        <time>2011-02-26T10:35:01Z</time>
      </trkpt>
      <trkpt lat="46.372973" lon="14.261401">
        <ele>1308.9540829248</ele>
        <time>2011-02-26T10:35:17Z</time>
      </trkpt>
      <trkpt lat="46.372998" lon="14.261403">
        <ele>1311.8440477824</ele>
        <time>2011-02-26T10:35:34Z</time>
      </trkpt>
      <trkpt lat="46.373004" lon="14.261389">
        <ele>1313.284030272</ele>
        <time>2011-02-26T10:35:49Z</time>
      </trkpt>
      <trkpt lat="46.373013" lon="14.261358">
        <ele>1316.1639952512</ele>
        <time>2011-02-26T10:35:59Z</time>
      </trkpt>
      <trkpt lat="46.373035" lon="14.261337">
        <ele>1316.6439894144</ele>
        <time>2011-02-26T10:36:14Z</time>
      </trkpt>
      <trkpt lat="46.373040" lon="14.261330">
        <ele>1317.6039777408</ele>
        <time>2011-02-26T10:36:31Z</time>
      </trkpt>
      <trkpt lat="46.373053" lon="14.261314">
        <ele>1317.6039777408</ele>
        <time>2011-02-26T10:36:58Z</time>
      </trkpt>
      <trkpt lat="46.373093" lon="14.261255">
        <ele>1320.4939425984</ele>
        <time>2011-02-26T10:37:06Z</time>
      </trkpt>
      <trkpt lat="46.373120" lon="14.261199">
        <ele>1321.933925088</ele>
        <time>2011-02-26T10:37:24Z</time>
      </trkpt>
      <trkpt lat="46.373120" lon="14.261199">
        <ele>1325.2938842304</ele>
        <time>2011-02-26T10:37:33Z</time>
      </trkpt>
      <trkpt lat="46.373132" lon="14.261156">
        <ele>1325.783878272</ele>
        <time>2011-02-26T10:37:48Z</time>
      </trkpt>
      <trkpt lat="46.373156" lon="14.261099">
        <ele>1329.1438374144</ele>
        <time>2011-02-26T10:38:03Z</time>
      </trkpt>
      <trkpt lat="46.373177" lon="14.260998">
        <ele>1330.583819904</ele>
        <time>2011-02-26T10:38:19Z</time>
      </trkpt>
      <trkpt lat="46.373197" lon="14.260949">
        <ele>1332.5037965568</ele>
        <time>2011-02-26T10:38:34Z</time>
      </trkpt>
      <trkpt lat="46.373190" lon="14.260915">
        <ele>1332.9937905984</ele>
        <time>2011-02-26T10:38:58Z</time>
      </trkpt>
      <trkpt lat="46.373275" lon="14.260761">
        <ele>1335.3937614144</ele>
        <time>2011-02-26T10:39:16Z</time>
      </trkpt>
      <trkpt lat="46.373305" lon="14.260720">
        <ele>1337.7937322304</ele>
        <time>2011-02-26T10:39:29Z</time>
      </trkpt>
      <trkpt lat="46.373309" lon="14.260712">
        <ele>1341.1636912512</ele>
        <time>2011-02-26T10:39:48Z</time>
      </trkpt>
      <trkpt lat="46.373348" lon="14.260588">
        <ele>1343.083667904</ele>
        <time>2011-02-26T10:40:04Z</time>
      </trkpt>
      <trkpt lat="46.373366" lon="14.260443">
        <ele>1345.48363872</ele>
        <time>2011-02-26T10:40:22Z</time>
      </trkpt>
      <trkpt lat="46.373373" lon="14.260393">
        <ele>1346.9236212096</ele>
        <time>2011-02-26T10:40:38Z</time>
      </trkpt>
      <trkpt lat="46.373367" lon="14.260390">
        <ele>1346.9236212096</ele>
        <time>2011-02-26T10:41:04Z</time>
      </trkpt>
      <trkpt lat="46.373367" lon="14.260390">
        <ele>1347.4136152512</ele>
        <time>2011-02-26T10:41:25Z</time>
      </trkpt>
      <trkpt lat="46.373368" lon="14.260390">
        <ele>1346.9236212096</ele>
        <time>2011-02-26T10:41:51Z</time>
      </trkpt>
      <trkpt lat="46.373381" lon="14.260354">
        <ele>1347.8936094144</ele>
        <time>2011-02-26T10:42:07Z</time>
      </trkpt>
      <trkpt lat="46.373395" lon="14.260297">
        <ele>1351.73356272</ele>
        <time>2011-02-26T10:42:21Z</time>
      </trkpt>
      <trkpt lat="46.373405" lon="14.260258">
        <ele>1353.1735452096</ele>
        <time>2011-02-26T10:42:36Z</time>
      </trkpt>
      <trkpt lat="46.373405" lon="14.260258">
        <ele>1356.5435042304</ele>
        <time>2011-02-26T10:42:53Z</time>
      </trkpt>
      <trkpt lat="46.373412" lon="14.260217">
        <ele>1357.98348672</ele>
        <time>2011-02-26T10:43:19Z</time>
      </trkpt>
      <trkpt lat="46.373415" lon="14.260076">
        <ele>1359.9034633728</ele>
        <time>2011-02-26T10:43:31Z</time>
      </trkpt>
      <trkpt lat="46.373414" lon="14.260071">
        <ele>1360.8634516992</ele>
        <time>2011-02-26T10:43:53Z</time>
      </trkpt>
      <trkpt lat="46.373450" lon="14.259943">
        <ele>1362.7934282304</ele>
        <time>2011-02-26T10:44:11Z</time>
      </trkpt>
      <trkpt lat="46.373462" lon="14.259884">
        <ele>1365.6733932096</ele>
        <time>2011-02-26T10:44:25Z</time>
      </trkpt>
      <trkpt lat="46.373450" lon="14.259817">
        <ele>1367.5933698624</ele>
        <time>2011-02-26T10:44:38Z</time>
      </trkpt>
      <trkpt lat="46.373472" lon="14.259776">
        <ele>1369.5233463936</ele>
        <time>2011-02-26T10:44:55Z</time>
      </trkpt>
      <trkpt lat="46.373523" lon="14.259708">
        <ele>1370.9633288832</ele>
        <time>2011-02-26T10:45:11Z</time>
      </trkpt>
      <trkpt lat="46.373530" lon="14.259698">
        <ele>1371.4433230464</ele>
        <time>2011-02-26T10:45:43Z</time>
      </trkpt>
      <trkpt lat="46.373560" lon="14.259644">
        <ele>1374.8032821888</ele>
        <time>2011-02-26T10:45:59Z</time>
      </trkpt>
      <trkpt lat="46.373591" lon="14.259582">
        <ele>1376.2432646784</ele>
        <time>2011-02-26T10:46:13Z</time>
      </trkpt>
      <trkpt lat="46.373649" lon="14.259504">
        <ele>1378.6532353728</ele>
        <time>2011-02-26T10:46:29Z</time>
      </trkpt>
      <trkpt lat="46.373687" lon="14.259484">
        <ele>1380.5732120256</ele>
        <time>2011-02-26T10:46:44Z</time>
      </trkpt>
      <trkpt lat="46.373726" lon="14.259413">
        <ele>1383.4531770048</ele>
        <time>2011-02-26T10:47:00Z</time>
      </trkpt>
      <trkpt lat="46.373732" lon="14.259396">
        <ele>1386.3431418624</ele>
        <time>2011-02-26T10:47:16Z</time>
      </trkpt>
      <trkpt lat="46.373741" lon="14.259365">
        <ele>1387.783124352</ele>
        <time>2011-02-26T10:47:34Z</time>
      </trkpt>
      <trkpt lat="46.373716" lon="14.259265">
        <ele>1389.2231068416</ele>
        <time>2011-02-26T10:47:47Z</time>
      </trkpt>
      <trkpt lat="46.373726" lon="14.259104">
        <ele>1390.6630893312</ele>
        <time>2011-02-26T10:48:01Z</time>
      </trkpt>
      <trkpt lat="46.373724" lon="14.259012">
        <ele>1391.1530833728</ele>
        <time>2011-02-26T10:48:18Z</time>
      </trkpt>
      <trkpt lat="46.373724" lon="14.259012">
        <ele>1391.633077536</ele>
        <time>2011-02-26T10:48:44Z</time>
      </trkpt>
      <trkpt lat="46.373723" lon="14.259009">
        <ele>1391.1530833728</ele>
        <time>2011-02-26T10:49:17Z</time>
      </trkpt>
      <trkpt lat="46.373721" lon="14.259003">
        <ele>1391.633077536</ele>
        <time>2011-02-26T10:49:44Z</time>
      </trkpt>
      <trkpt lat="46.373715" lon="14.259009">
        <ele>1391.633077536</ele>
        <time>2011-02-26T10:50:01Z</time>
      </trkpt>
      <trkpt lat="46.373708" lon="14.259010">
        <ele>1391.1530833728</ele>
        <time>2011-02-26T10:50:28Z</time>
      </trkpt>
      <trkpt lat="46.373694" lon="14.259023">
        <ele>1391.1530833728</ele>
        <time>2011-02-26T10:50:40Z</time>
      </trkpt>
      <trkpt lat="46.373678" lon="14.259040">
        <ele>1389.7031010048</ele>
        <time>2011-02-26T10:50:56Z</time>
      </trkpt>
      <trkpt lat="46.373677" lon="14.259039">
        <ele>1390.183095168</ele>
        <time>2011-02-26T10:51:23Z</time>
      </trkpt>
      <trkpt lat="46.373677" lon="14.259039">
        <ele>1390.183095168</ele>
        <time>2011-02-26T10:51:49Z</time>
      </trkpt>
      <trkpt lat="46.373681" lon="14.259037">
        <ele>1389.7031010048</ele>
        <time>2011-02-26T10:52:17Z</time>
      </trkpt>
      <trkpt lat="46.373681" lon="14.259041">
        <ele>1389.7031010048</ele>
        <time>2011-02-26T10:52:48Z</time>
      </trkpt>
      <trkpt lat="46.373681" lon="14.259041">
        <ele>1389.7031010048</ele>
        <time>2011-02-26T10:53:21Z</time>
      </trkpt>
      <trkpt lat="46.373682" lon="14.259043">
        <ele>1390.6630893312</ele>
        <time>2011-02-26T10:53:49Z</time>
      </trkpt>
      <trkpt lat="46.373682" lon="14.259042">
        <ele>1389.7031010048</ele>
        <time>2011-02-26T10:54:22Z</time>
      </trkpt>
      <trkpt lat="46.373689" lon="14.259039">
        <ele>1389.7031010048</ele>
        <time>2011-02-26T10:54:50Z</time>
      </trkpt>
      <trkpt lat="46.373689" lon="14.259039">
        <ele>1390.183095168</ele>
        <time>2011-02-26T10:55:14Z</time>
      </trkpt>
      <trkpt lat="46.373693" lon="14.259036">
        <ele>1390.183095168</ele>
        <time>2011-02-26T10:55:44Z</time>
      </trkpt>
      <trkpt lat="46.373692" lon="14.259038">
        <ele>1390.183095168</ele>
        <time>2011-02-26T10:56:14Z</time>
      </trkpt>
      <trkpt lat="46.373692" lon="14.259038">
        <ele>1390.183095168</ele>
        <time>2011-02-26T10:56:39Z</time>
      </trkpt>
      <trkpt lat="46.373702" lon="14.259043">
        <ele>1390.183095168</ele>
        <time>2011-02-26T10:57:01Z</time>
      </trkpt>
      <trkpt lat="46.373701" lon="14.259032">
        <ele>1389.7031010048</ele>
        <time>2011-02-26T10:57:23Z</time>
      </trkpt>
      <trkpt lat="46.373724" lon="14.258954">
        <ele>1391.1530833728</ele>
        <time>2011-02-26T10:57:40Z</time>
      </trkpt>
      <trkpt lat="46.373735" lon="14.258976">
        <ele>1392.5930658624</ele>
        <time>2011-02-26T10:57:55Z</time>
      </trkpt>
      <trkpt lat="46.373759" lon="14.258944">
        <ele>1394.5130425152</ele>
        <time>2011-02-26T10:58:10Z</time>
      </trkpt>
      <trkpt lat="46.373829" lon="14.258822">
        <ele>1397.8730016576</ele>
        <time>2011-02-26T10:58:26Z</time>
      </trkpt>
      <trkpt lat="46.373852" lon="14.258796">
        <ele>1399.3229840256</ele>
        <time>2011-02-26T10:58:41Z</time>
      </trkpt>
      <trkpt lat="46.373872" lon="14.258756">
        <ele>1402.682943168</ele>
        <time>2011-02-26T10:58:56Z</time>
      </trkpt>
      <trkpt lat="46.373920" lon="14.258744">
        <ele>1404.6029198208</ele>
        <time>2011-02-26T10:59:13Z</time>
      </trkpt>
      <trkpt lat="46.373920" lon="14.258744">
        <ele>1406.532896352</ele>
        <time>2011-02-26T10:59:16Z</time>
      </trkpt>
      <trkpt lat="46.373955" lon="14.258627">
        <ele>1407.9728788416</ele>
        <time>2011-02-26T10:59:31Z</time>
      </trkpt>
      <trkpt lat="46.373955" lon="14.258628">
        <ele>1408.4528730048</ele>
        <time>2011-02-26T10:59:48Z</time>
      </trkpt>
      <trkpt lat="46.373970" lon="14.258559">
        <ele>1409.4128613312</ele>
        <time>2011-02-26T11:00:03Z</time>
      </trkpt>
      <trkpt lat="46.374013" lon="14.258517">
        <ele>1411.8128321472</ele>
        <time>2011-02-26T11:00:18Z</time>
      </trkpt>
      <trkpt lat="46.374028" lon="14.258479">
        <ele>1413.7428086784</ele>
        <time>2011-02-26T11:00:26Z</time>
      </trkpt>
      <trkpt lat="46.374060" lon="14.258368">
        <ele>1416.6227736576</ele>
        <time>2011-02-26T11:00:41Z</time>
      </trkpt>
      <trkpt lat="46.374080" lon="14.258381">
        <ele>1418.5427503104</ele>
        <time>2011-02-26T11:00:56Z</time>
      </trkpt>
      <trkpt lat="46.374114" lon="14.258403">
        <ele>1421.9127093312</ele>
        <time>2011-02-26T11:01:09Z</time>
      </trkpt>
      <trkpt lat="46.374184" lon="14.258375">
        <ele>1422.3927034944</ele>
        <time>2011-02-26T11:01:24Z</time>
      </trkpt>
      <trkpt lat="46.374168" lon="14.258352">
        <ele>1423.832685984</ele>
        <time>2011-02-26T11:01:28Z</time>
      </trkpt>
      <trkpt lat="46.374168" lon="14.258346">
        <ele>1423.3526918208</ele>
        <time>2011-02-26T11:01:47Z</time>
      </trkpt>
      <trkpt lat="46.374170" lon="14.258291">
        <ele>1424.3126801472</ele>
        <time>2011-02-26T11:02:06Z</time>
      </trkpt>
      <trkpt lat="46.374183" lon="14.258286">
        <ele>1426.2326568</ele>
        <time>2011-02-26T11:02:22Z</time>
      </trkpt>
      <trkpt lat="46.374203" lon="14.258202">
        <ele>1426.7126509632</ele>
        <time>2011-02-26T11:02:48Z</time>
      </trkpt>
      <trkpt lat="46.374242" lon="14.258122">
        <ele>1430.082609984</ele>
        <time>2011-02-26T11:03:05Z</time>
      </trkpt>
      <trkpt lat="46.374252" lon="14.258106">
        <ele>1432.0025866368</ele>
        <time>2011-02-26T11:03:23Z</time>
      </trkpt>
      <trkpt lat="46.374269" lon="14.258059">
        <ele>1433.9225632896</ele>
        <time>2011-02-26T11:03:42Z</time>
      </trkpt>
      <trkpt lat="46.374274" lon="14.257999">
        <ele>1433.4425691264</ele>
        <time>2011-02-26T11:03:59Z</time>
      </trkpt>
      <trkpt lat="46.374274" lon="14.257932">
        <ele>1436.332533984</ele>
        <time>2011-02-26T11:04:10Z</time>
      </trkpt>
      <trkpt lat="46.374276" lon="14.257875">
        <ele>1437.7725164736</ele>
        <time>2011-02-26T11:04:22Z</time>
      </trkpt>
      <trkpt lat="46.374287" lon="14.257820">
        <ele>1438.2525106368</ele>
        <time>2011-02-26T11:04:44Z</time>
      </trkpt>
      <trkpt lat="46.374289" lon="14.257798">
        <ele>1439.2124989632</ele>
        <time>2011-02-26T11:05:07Z</time>
      </trkpt>
      <trkpt lat="46.374307" lon="14.257726">
        <ele>1441.6124697792</ele>
        <time>2011-02-26T11:05:20Z</time>
      </trkpt>
      <trkpt lat="46.374312" lon="14.257680">
        <ele>1443.0624521472</ele>
        <time>2011-02-26T11:05:34Z</time>
      </trkpt>
      <trkpt lat="46.374314" lon="14.257659">
        <ele>1444.0224404736</ele>
        <time>2011-02-26T11:05:53Z</time>
      </trkpt>
      <trkpt lat="46.374325" lon="14.257601">
        <ele>1445.4624229632</ele>
        <time>2011-02-26T11:06:08Z</time>
      </trkpt>
      <trkpt lat="46.374327" lon="14.257530">
        <ele>1446.4224112896</ele>
        <time>2011-02-26T11:06:21Z</time>
      </trkpt>
      <trkpt lat="46.374340" lon="14.257530">
        <ele>1447.8623937792</ele>
        <time>2011-02-26T11:06:45Z</time>
      </trkpt>
      <trkpt lat="46.374357" lon="14.257550">
        <ele>1447.8623937792</ele>
        <time>2011-02-26T11:06:58Z</time>
      </trkpt>
      <trkpt lat="46.374349" lon="14.257529">
        <ele>1449.7923703104</ele>
        <time>2011-02-26T11:07:14Z</time>
      </trkpt>
      <trkpt lat="46.374349" lon="14.257529">
        <ele>1449.3023762688</ele>
        <time>2011-02-26T11:07:45Z</time>
      </trkpt>
      <trkpt lat="46.374353" lon="14.257512">
        <ele>1449.3023762688</ele>
        <time>2011-02-26T11:08:16Z</time>
      </trkpt>
      <trkpt lat="46.374378" lon="14.257419">
        <ele>1451.2323528</ele>
        <time>2011-02-26T11:08:29Z</time>
      </trkpt>
      <trkpt lat="46.374386" lon="14.257329">
        <ele>1453.1523294528</ele>
        <time>2011-02-26T11:08:44Z</time>
      </trkpt>
      <trkpt lat="46.374404" lon="14.257277">
        <ele>1455.0723061056</ele>
        <time>2011-02-26T11:09:05Z</time>
      </trkpt>
      <trkpt lat="46.374425" lon="14.257228">
        <ele>1456.5122885952</ele>
        <time>2011-02-26T11:09:22Z</time>
      </trkpt>
      <trkpt lat="46.374425" lon="14.257231">
        <ele>1452.6723352896</ele>
        <time>2011-02-26T11:09:44Z</time>
      </trkpt>
      <trkpt lat="46.374425" lon="14.257231">
        <ele>1457.4822768</ele>
        <time>2011-02-26T11:09:45Z</time>
      </trkpt>
      <trkpt lat="46.374425" lon="14.257231">
        <ele>1454.1123177792</ele>
        <time>2011-02-26T11:09:45Z</time>
      </trkpt>
      <trkpt lat="46.374425" lon="14.257231">
        <ele>1456.032294432</ele>
        <time>2011-02-26T11:10:13Z</time>
      </trkpt>
      <trkpt lat="46.374425" lon="14.257232">
        <ele>1453.1523294528</ele>
        <time>2011-02-26T11:10:28Z</time>
      </trkpt>
      <trkpt lat="46.374425" lon="14.257232">
        <ele>1456.5122885952</ele>
        <time>2011-02-26T11:10:30Z</time>
      </trkpt>
      <trkpt lat="46.374425" lon="14.257232">
        <ele>1456.032294432</ele>
        <time>2011-02-26T11:10:31Z</time>
      </trkpt>
      <trkpt lat="46.374423" lon="14.257236">
        <ele>1456.032294432</ele>
        <time>2011-02-26T11:10:59Z</time>
      </trkpt>
      <trkpt lat="46.374441" lon="14.257215">
        <ele>1457.4822768</ele>
        <time>2011-02-26T11:11:22Z</time>
      </trkpt>
      <trkpt lat="46.374464" lon="14.257174">
        <ele>1458.9222592896</ele>
        <time>2011-02-26T11:11:37Z</time>
      </trkpt>
      <trkpt lat="46.374480" lon="14.257185">
        <ele>1459.882247616</ele>
        <time>2011-02-26T11:11:57Z</time>
      </trkpt>
      <trkpt lat="46.374503" lon="14.257158">
        <ele>1462.282218432</ele>
        <time>2011-02-26T11:12:16Z</time>
      </trkpt>
      <trkpt lat="46.374519" lon="14.257153">
        <ele>1464.2121949632</ele>
        <time>2011-02-26T11:12:39Z</time>
      </trkpt>
      <trkpt lat="46.374633" lon="14.257037">
        <ele>1466.6121657792</ele>
        <time>2011-02-26T11:12:54Z</time>
      </trkpt>
      <trkpt lat="46.374674" lon="14.256990">
        <ele>1469.4921307584</ele>
        <time>2011-02-26T11:13:10Z</time>
      </trkpt>
      <trkpt lat="46.374737" lon="14.256924">
        <ele>1471.9021014528</ele>
        <time>2011-02-26T11:13:25Z</time>
      </trkpt>
      <trkpt lat="46.374779" lon="14.256862">
        <ele>1474.3020722688</ele>
        <time>2011-02-26T11:13:39Z</time>
      </trkpt>
      <trkpt lat="46.374842" lon="14.256735">
        <ele>1476.7020430848</ele>
        <time>2011-02-26T11:13:53Z</time>
      </trkpt>
      <trkpt lat="46.374859" lon="14.256662">
        <ele>1478.632019616</ele>
        <time>2011-02-26T11:14:08Z</time>
      </trkpt>
      <trkpt lat="46.374869" lon="14.256677">
        <ele>1479.5920079424</ele>
        <time>2011-02-26T11:14:26Z</time>
      </trkpt>
      <trkpt lat="46.374869" lon="14.256677">
        <ele>1480.0720021056</ele>
        <time>2011-02-26T11:14:50Z</time>
      </trkpt>
      <trkpt lat="46.374867" lon="14.256671">
        <ele>1479.5920079424</ele>
        <time>2011-02-26T11:15:18Z</time>
      </trkpt>
      <trkpt lat="46.374898" lon="14.256581">
        <ele>1480.0720021056</ele>
        <time>2011-02-26T11:15:35Z</time>
      </trkpt>
      <trkpt lat="46.374922" lon="14.256475">
        <ele>1481.031990432</ele>
        <time>2011-02-26T11:15:47Z</time>
      </trkpt>
      <trkpt lat="46.374922" lon="14.256475">
        <ele>1481.5119845952</ele>
        <time>2011-02-26T11:16:12Z</time>
      </trkpt>
      <trkpt lat="46.374925" lon="14.256455">
        <ele>1481.5119845952</ele>
        <time>2011-02-26T11:16:34Z</time>
      </trkpt>
      <trkpt lat="46.374966" lon="14.256335">
        <ele>1482.4719729216</ele>
        <time>2011-02-26T11:16:44Z</time>
      </trkpt>
      <trkpt lat="46.374984" lon="14.256281">
        <ele>1482.9519670848</ele>
        <time>2011-02-26T11:16:57Z</time>
      </trkpt>
      <trkpt lat="46.374965" lon="14.256346">
        <ele>1485.3519379008</ele>
        <time>2011-02-26T11:17:13Z</time>
      </trkpt>
      <trkpt lat="46.374978" lon="14.256345">
        <ele>1486.3219261056</ele>
        <time>2011-02-26T11:17:25Z</time>
      </trkpt>
      <trkpt lat="46.374976" lon="14.256342">
        <ele>1486.3219261056</ele>
        <time>2011-02-26T11:17:44Z</time>
      </trkpt>
      <trkpt lat="46.374976" lon="14.256343">
        <ele>1486.3219261056</ele>
        <time>2011-02-26T11:18:10Z</time>
      </trkpt>
      <trkpt lat="46.374978" lon="14.256345">
        <ele>1486.3219261056</ele>
        <time>2011-02-26T11:18:27Z</time>
      </trkpt>
      <trkpt lat="46.375032" lon="14.256296">
        <ele>1488.2419027584</ele>
        <time>2011-02-26T11:18:42Z</time>
      </trkpt>
      <trkpt lat="46.375054" lon="14.256278">
        <ele>1490.1618794112</ele>
        <time>2011-02-26T11:18:49Z</time>
      </trkpt>
      <trkpt lat="46.375059" lon="14.256285">
        <ele>1492.081856064</ele>
        <time>2011-02-26T11:18:57Z</time>
      </trkpt>
      <trkpt lat="46.375063" lon="14.256291">
        <ele>1492.081856064</ele>
        <time>2011-02-26T11:19:19Z</time>
      </trkpt>
      <trkpt lat="46.375072" lon="14.256337">
        <ele>1494.0118325952</ele>
        <time>2011-02-26T11:19:48Z</time>
      </trkpt>
      <trkpt lat="46.375088" lon="14.256341">
        <ele>1494.0118325952</ele>
        <time>2011-02-26T11:20:06Z</time>
      </trkpt>
      <trkpt lat="46.375120" lon="14.256365">
        <ele>1495.4518150848</ele>
        <time>2011-02-26T11:20:20Z</time>
      </trkpt>
      <trkpt lat="46.375133" lon="14.256345">
        <ele>1497.8517859008</ele>
        <time>2011-02-26T11:20:34Z</time>
      </trkpt>
      <trkpt lat="46.375171" lon="14.256334">
        <ele>1499.7717625536</ele>
        <time>2011-02-26T11:20:51Z</time>
      </trkpt>
      <trkpt lat="46.375177" lon="14.256357">
        <ele>1501.7017390848</ele>
        <time>2011-02-26T11:21:04Z</time>
      </trkpt>
      <trkpt lat="46.375180" lon="14.256352">
        <ele>1501.7017390848</ele>
        <time>2011-02-26T11:21:34Z</time>
      </trkpt>
      <trkpt lat="46.375214" lon="14.256284">
        <ele>1502.6617274112</ele>
        <time>2011-02-26T11:21:49Z</time>
      </trkpt>
      <trkpt lat="46.375257" lon="14.256264">
        <ele>1504.581704064</ele>
        <time>2011-02-26T11:22:08Z</time>
      </trkpt>
      <trkpt lat="46.375281" lon="14.256222">
        <ele>1505.0616982272</ele>
        <time>2011-02-26T11:22:32Z</time>
      </trkpt>
      <trkpt lat="46.375323" lon="14.256192">
        <ele>1506.98167488</ele>
        <time>2011-02-26T11:22:35Z</time>
      </trkpt>
      <trkpt lat="46.375323" lon="14.256219">
        <ele>1506.98167488</ele>
        <time>2011-02-26T11:22:49Z</time>
      </trkpt>
      <trkpt lat="46.375332" lon="14.256232">
        <ele>1508.431657248</ele>
        <time>2011-02-26T11:23:07Z</time>
      </trkpt>
      <trkpt lat="46.375399" lon="14.256208">
        <ele>1510.3516339008</ele>
        <time>2011-02-26T11:23:22Z</time>
      </trkpt>
      <trkpt lat="46.375433" lon="14.256178">
        <ele>1513.23159888</ele>
        <time>2011-02-26T11:23:37Z</time>
      </trkpt>
      <trkpt lat="46.375448" lon="14.256167">
        <ele>1513.23159888</ele>
        <time>2011-02-26T11:23:51Z</time>
      </trkpt>
      <trkpt lat="46.375448" lon="14.256167">
        <ele>1513.23159888</ele>
        <time>2011-02-26T11:24:20Z</time>
      </trkpt>
      <trkpt lat="46.375519" lon="14.256115">
        <ele>1514.6715813696</ele>
        <time>2011-02-26T11:24:33Z</time>
      </trkpt>
      <trkpt lat="46.375550" lon="14.256094">
        <ele>1518.0415403904</ele>
        <time>2011-02-26T11:24:48Z</time>
      </trkpt>
      <trkpt lat="46.375554" lon="14.256098">
        <ele>1515.6415695744</ele>
        <time>2011-02-26T11:24:51Z</time>
      </trkpt>
      <trkpt lat="46.375555" lon="14.256097">
        <ele>1517.081552064</ele>
        <time>2011-02-26T11:25:04Z</time>
      </trkpt>
      <trkpt lat="46.375590" lon="14.256098">
        <ele>1516.6015579008</ele>
        <time>2011-02-26T11:25:18Z</time>
      </trkpt>
      <trkpt lat="46.375610" lon="14.256132">
        <ele>1517.5615462272</ele>
        <time>2011-02-26T11:25:30Z</time>
      </trkpt>
      <trkpt lat="46.375678" lon="14.256061">
        <ele>1519.48152288</ele>
        <time>2011-02-26T11:25:44Z</time>
      </trkpt>
      <trkpt lat="46.375731" lon="14.255967">
        <ele>1521.881493696</ele>
        <time>2011-02-26T11:25:54Z</time>
      </trkpt>
      <trkpt lat="46.375752" lon="14.255902">
        <ele>1523.331476064</ele>
        <time>2011-02-26T11:26:05Z</time>
      </trkpt>
      <trkpt lat="46.375768" lon="14.255867">
        <ele>1525.2514527168</ele>
        <time>2011-02-26T11:26:21Z</time>
      </trkpt>
      <trkpt lat="46.375783" lon="14.255851">
        <ele>1525.73144688</ele>
        <time>2011-02-26T11:26:32Z</time>
      </trkpt>
      <trkpt lat="46.375836" lon="14.255737">
        <ele>1527.6514235328</ele>
        <time>2011-02-26T11:26:47Z</time>
      </trkpt>
      <trkpt lat="46.375878" lon="14.255654">
        <ele>1528.6114118592</ele>
        <time>2011-02-26T11:27:00Z</time>
      </trkpt>
      <trkpt lat="46.375898" lon="14.255544">
        <ele>1530.5413883904</ele>
        <time>2011-02-26T11:27:14Z</time>
      </trkpt>
      <trkpt lat="46.375921" lon="14.255461">
        <ele>1531.5013767168</ele>
        <time>2011-02-26T11:27:32Z</time>
      </trkpt>
      <trkpt lat="46.375923" lon="14.255359">
        <ele>1533.9013475328</ele>
        <time>2011-02-26T11:27:46Z</time>
      </trkpt>
      <trkpt lat="46.375941" lon="14.255278">
        <ele>1535.3413300224</ele>
        <time>2011-02-26T11:28:01Z</time>
      </trkpt>
      <trkpt lat="46.375962" lon="14.255221">
        <ele>1537.2713065536</ele>
        <time>2011-02-26T11:28:16Z</time>
      </trkpt>
      <trkpt lat="46.375968" lon="14.255176">
        <ele>1538.23129488</ele>
        <time>2011-02-26T11:28:31Z</time>
      </trkpt>
      <trkpt lat="46.376030" lon="14.255090">
        <ele>1540.1512715328</ele>
        <time>2011-02-26T11:28:43Z</time>
      </trkpt>
      <trkpt lat="46.376094" lon="14.254993">
        <ele>1542.0712481856</ele>
        <time>2011-02-26T11:28:58Z</time>
      </trkpt>
      <trkpt lat="46.376106" lon="14.254908">
        <ele>1543.031236512</ele>
        <time>2011-02-26T11:29:10Z</time>
      </trkpt>
      <trkpt lat="46.376149" lon="14.254816">
        <ele>1544.9612130432</ele>
        <time>2011-02-26T11:29:25Z</time>
      </trkpt>
      <trkpt lat="46.376192" lon="14.254692">
        <ele>1546.881189696</ele>
        <time>2011-02-26T11:29:40Z</time>
      </trkpt>
      <trkpt lat="46.376200" lon="14.254685">
        <ele>1546.4011955328</ele>
        <time>2011-02-26T11:29:57Z</time>
      </trkpt>
      <trkpt lat="46.376187" lon="14.254687">
        <ele>1546.4011955328</ele>
        <time>2011-02-26T11:30:23Z</time>
      </trkpt>
      <trkpt lat="46.376187" lon="14.254687">
        <ele>1545.9212013696</ele>
        <time>2011-02-26T11:30:55Z</time>
      </trkpt>
      <trkpt lat="46.376174" lon="14.254710">
        <ele>1546.881189696</ele>
        <time>2011-02-26T11:31:10Z</time>
      </trkpt>
      <trkpt lat="46.376174" lon="14.254710">
        <ele>1546.4011955328</ele>
        <time>2011-02-26T11:31:37Z</time>
      </trkpt>
      <trkpt lat="46.376170" lon="14.254716">
        <ele>1545.9212013696</ele>
        <time>2011-02-26T11:32:07Z</time>
      </trkpt>
      <trkpt lat="46.376183" lon="14.254687">
        <ele>1546.4011955328</ele>
        <time>2011-02-26T11:32:31Z</time>
      </trkpt>
      <trkpt lat="46.376248" lon="14.254580">
        <ele>1547.3611838592</ele>
        <time>2011-02-26T11:32:45Z</time>
      </trkpt>
      <trkpt lat="46.376248" lon="14.254577">
        <ele>1548.3211721856</ele>
        <time>2011-02-26T11:33:02Z</time>
      </trkpt>
      <trkpt lat="46.376276" lon="14.254549">
        <ele>1548.3211721856</ele>
        <time>2011-02-26T11:33:20Z</time>
      </trkpt>
      <trkpt lat="46.376268" lon="14.254556">
        <ele>1548.8011663488</ele>
        <time>2011-02-26T11:33:40Z</time>
      </trkpt>
      <trkpt lat="46.376268" lon="14.254556">
        <ele>1548.3211721856</ele>
        <time>2011-02-26T11:34:12Z</time>
      </trkpt>
      <trkpt lat="46.376263" lon="14.254559">
        <ele>1548.3211721856</ele>
        <time>2011-02-26T11:34:39Z</time>
      </trkpt>
      <trkpt lat="46.376325" lon="14.254478">
        <ele>1548.8011663488</ele>
        <time>2011-02-26T11:34:56Z</time>
      </trkpt>
      <trkpt lat="46.376376" lon="14.254399">
        <ele>1549.7611546752</ele>
        <time>2011-02-26T11:35:05Z</time>
      </trkpt>
      <trkpt lat="46.376456" lon="14.254305">
        <ele>1551.6911312064</ele>
        <time>2011-02-26T11:35:20Z</time>
      </trkpt>
      <trkpt lat="46.376526" lon="14.254211">
        <ele>1552.6511195328</ele>
        <time>2011-02-26T11:35:32Z</time>
      </trkpt>
      <trkpt lat="46.376568" lon="14.254103">
        <ele>1553.6111078592</ele>
        <time>2011-02-26T11:35:47Z</time>
      </trkpt>
      <trkpt lat="46.376580" lon="14.254035">
        <ele>1555.0510903488</ele>
        <time>2011-02-26T11:35:54Z</time>
      </trkpt>
      <trkpt lat="46.376606" lon="14.253906">
        <ele>1556.4910728384</ele>
        <time>2011-02-26T11:36:07Z</time>
      </trkpt>
      <trkpt lat="46.376635" lon="14.253864">
        <ele>1558.4110494912</ele>
        <time>2011-02-26T11:36:26Z</time>
      </trkpt>
      <trkpt lat="46.376662" lon="14.253830">
        <ele>1560.8210201856</ele>
        <time>2011-02-26T11:36:40Z</time>
      </trkpt>
      <trkpt lat="46.376687" lon="14.253809">
        <ele>1562.7409968384</ele>
        <time>2011-02-26T11:36:56Z</time>
      </trkpt>
      <trkpt lat="46.376753" lon="14.253708">
        <ele>1563.2209910016</ele>
        <time>2011-02-26T11:37:08Z</time>
      </trkpt>
      <trkpt lat="46.376813" lon="14.253587">
        <ele>1565.1409676544</ele>
        <time>2011-02-26T11:37:23Z</time>
      </trkpt>
      <trkpt lat="46.376845" lon="14.253527">
        <ele>1567.0709441856</ele>
        <time>2011-02-26T11:37:39Z</time>
      </trkpt>
      <trkpt lat="46.376876" lon="14.253485">
        <ele>1568.5109266752</ele>
        <time>2011-02-26T11:37:58Z</time>
      </trkpt>
      <trkpt lat="46.376931" lon="14.253392">
        <ele>1570.430903328</ele>
        <time>2011-02-26T11:38:11Z</time>
      </trkpt>
      <trkpt lat="46.376960" lon="14.253330">
        <ele>1571.3908916544</ele>
        <time>2011-02-26T11:38:30Z</time>
      </trkpt>
      <trkpt lat="46.376982" lon="14.253284">
        <ele>1573.3108683072</ele>
        <time>2011-02-26T11:38:45Z</time>
      </trkpt>
      <trkpt lat="46.377044" lon="14.253183">
        <ele>1575.2408448384</ele>
        <time>2011-02-26T11:38:59Z</time>
      </trkpt>
      <trkpt lat="46.377050" lon="14.253167">
        <ele>1575.2408448384</ele>
        <time>2011-02-26T11:39:19Z</time>
      </trkpt>
      <trkpt lat="46.377067" lon="14.253146">
        <ele>1576.2008331648</ele>
        <time>2011-02-26T11:39:23Z</time>
      </trkpt>
      <trkpt lat="46.377101" lon="14.253110">
        <ele>1579.080798144</ele>
        <time>2011-02-26T11:39:41Z</time>
      </trkpt>
      <trkpt lat="46.377134" lon="14.253035">
        <ele>1580.5207806336</ele>
        <time>2011-02-26T11:39:54Z</time>
      </trkpt>
      <trkpt lat="46.377137" lon="14.253035">
        <ele>1581.0107746752</ele>
        <time>2011-02-26T11:39:58Z</time>
      </trkpt>
      <trkpt lat="46.377216" lon="14.252938">
        <ele>1581.9707630016</ele>
        <time>2011-02-26T11:40:13Z</time>
      </trkpt>
      <trkpt lat="46.377244" lon="14.252915">
        <ele>1582.4507571648</ele>
        <time>2011-02-26T11:40:17Z</time>
      </trkpt>
      <trkpt lat="46.377351" lon="14.252897">
        <ele>1581.4907688384</ele>
        <time>2011-02-26T11:40:29Z</time>
      </trkpt>
      <trkpt lat="46.377398" lon="14.252883">
        <ele>1580.5207806336</ele>
        <time>2011-02-26T11:40:40Z</time>
      </trkpt>
      <trkpt lat="46.377508" lon="14.252895">
        <ele>1579.080798144</ele>
        <time>2011-02-26T11:40:52Z</time>
      </trkpt>
      <trkpt lat="46.377543" lon="14.252870">
        <ele>1578.1208098176</ele>
        <time>2011-02-26T11:40:56Z</time>
      </trkpt>
      <trkpt lat="46.377599" lon="14.252847">
        <ele>1576.2008331648</ele>
        <time>2011-02-26T11:41:03Z</time>
      </trkpt>
      <trkpt lat="46.377630" lon="14.252836">
        <ele>1575.2408448384</ele>
        <time>2011-02-26T11:41:19Z</time>
      </trkpt>
      <trkpt lat="46.377630" lon="14.252836">
        <ele>1577.1608214912</ele>
        <time>2011-02-26T11:41:33Z</time>
      </trkpt>
      <trkpt lat="46.377630" lon="14.252836">
        <ele>1571.3908916544</ele>
        <time>2011-02-26T11:41:34Z</time>
      </trkpt>
      <trkpt lat="46.377630" lon="14.252836">
        <ele>1573.8008623488</ele>
        <time>2011-02-26T11:41:34Z</time>
      </trkpt>
      <trkpt lat="46.377630" lon="14.252836">
        <ele>1575.2408448384</ele>
        <time>2011-02-26T11:41:37Z</time>
      </trkpt>
      <trkpt lat="46.377632" lon="14.252834">
        <ele>1577.6408156544</ele>
        <time>2011-02-26T11:42:05Z</time>
      </trkpt>
      <trkpt lat="46.377632" lon="14.252834">
        <ele>1573.3108683072</ele>
        <time>2011-02-26T11:42:05Z</time>
      </trkpt>
      <trkpt lat="46.377632" lon="14.252834">
        <ele>1575.2408448384</ele>
        <time>2011-02-26T11:42:06Z</time>
      </trkpt>
      <trkpt lat="46.377657" lon="14.252830">
        <ele>1575.2408448384</ele>
        <time>2011-02-26T11:42:16Z</time>
      </trkpt>
      <trkpt lat="46.377669" lon="14.252834">
        <ele>1570.9108974912</ele>
        <time>2011-02-26T11:42:27Z</time>
      </trkpt>
      <trkpt lat="46.377673" lon="14.252841">
        <ele>1575.2408448384</ele>
        <time>2011-02-26T11:42:28Z</time>
      </trkpt>
      <trkpt lat="46.377704" lon="14.252861">
        <ele>1575.2408448384</ele>
        <time>2011-02-26T11:42:32Z</time>
      </trkpt>
      <trkpt lat="46.377745" lon="14.252862">
        <ele>1574.7608506752</ele>
        <time>2011-02-26T11:42:40Z</time>
      </trkpt>
      <trkpt lat="46.377852" lon="14.252876">
        <ele>1573.8008623488</ele>
        <time>2011-02-26T11:42:55Z</time>
      </trkpt>
      <trkpt lat="46.377894" lon="14.252872">
        <ele>1573.3108683072</ele>
        <time>2011-02-26T11:43:19Z</time>
      </trkpt>
      <trkpt lat="46.378022" lon="14.252891">
        <ele>1575.2408448384</ele>
        <time>2011-02-26T11:43:35Z</time>
      </trkpt>
      <trkpt lat="46.378113" lon="14.252927">
        <ele>1576.2008331648</ele>
        <time>2011-02-26T11:43:50Z</time>
      </trkpt>
      <trkpt lat="46.378137" lon="14.252924">
        <ele>1576.680827328</ele>
        <time>2011-02-26T11:43:58Z</time>
      </trkpt>
      <trkpt lat="46.378210" lon="14.252928">
        <ele>1576.2008331648</ele>
        <time>2011-02-26T11:44:11Z</time>
      </trkpt>
      <trkpt lat="46.378296" lon="14.252927">
        <ele>1576.2008331648</ele>
        <time>2011-02-26T11:44:21Z</time>
      </trkpt>
      <trkpt lat="46.378322" lon="14.252952">
        <ele>1574.7608506752</ele>
        <time>2011-02-26T11:44:28Z</time>
      </trkpt>
      <trkpt lat="46.378421" lon="14.252959">
        <ele>1574.280856512</ele>
        <time>2011-02-26T11:44:40Z</time>
      </trkpt>
      <trkpt lat="46.378492" lon="14.252987">
        <ele>1573.8008623488</ele>
        <time>2011-02-26T11:44:55Z</time>
      </trkpt>
      <trkpt lat="46.378545" lon="14.253000">
        <ele>1574.7608506752</ele>
        <time>2011-02-26T11:45:07Z</time>
      </trkpt>
      <trkpt lat="46.378591" lon="14.253024">
        <ele>1574.7608506752</ele>
        <time>2011-02-26T11:45:19Z</time>
      </trkpt>
      <trkpt lat="46.378656" lon="14.253040">
        <ele>1574.7608506752</ele>
        <time>2011-02-26T11:45:36Z</time>
      </trkpt>
      <trkpt lat="46.378709" lon="14.253016">
        <ele>1575.2408448384</ele>
        <time>2011-02-26T11:45:49Z</time>
      </trkpt>
      <trkpt lat="46.378718" lon="14.253015">
        <ele>1575.7208390016</ele>
        <time>2011-02-26T11:45:49Z</time>
      </trkpt>
      <trkpt lat="46.378764" lon="14.252991">
        <ele>1576.2008331648</ele>
        <time>2011-02-26T11:45:54Z</time>
      </trkpt>
      <trkpt lat="46.378894" lon="14.252939">
        <ele>1577.1608214912</ele>
        <time>2011-02-26T11:46:09Z</time>
      </trkpt>
      <trkpt lat="46.378950" lon="14.252979">
        <ele>1579.080798144</ele>
        <time>2011-02-26T11:46:20Z</time>
      </trkpt>
      <trkpt lat="46.378994" lon="14.252953">
        <ele>1580.5207806336</ele>
        <time>2011-02-26T11:46:34Z</time>
      </trkpt>
      <trkpt lat="46.379084" lon="14.252908">
        <ele>1581.9707630016</ele>
        <time>2011-02-26T11:46:48Z</time>
      </trkpt>
      <trkpt lat="46.379165" lon="14.252904">
        <ele>1584.3707338176</ele>
        <time>2011-02-26T11:47:02Z</time>
      </trkpt>
      <trkpt lat="46.379223" lon="14.252883">
        <ele>1585.8107163072</ele>
        <time>2011-02-26T11:47:15Z</time>
      </trkpt>
      <trkpt lat="46.379249" lon="14.252870">
        <ele>1586.2907104704</ele>
        <time>2011-02-26T11:47:33Z</time>
      </trkpt>
      <trkpt lat="46.379249" lon="14.252870">
        <ele>1587.2506987968</ele>
        <time>2011-02-26T11:48:00Z</time>
      </trkpt>
      <trkpt lat="46.379324" lon="14.252877">
        <ele>1587.73069296</ele>
        <time>2011-02-26T11:48:16Z</time>
      </trkpt>
      <trkpt lat="46.379416" lon="14.252827">
        <ele>1588.2206870016</ele>
        <time>2011-02-26T11:48:31Z</time>
      </trkpt>
      <trkpt lat="46.379475" lon="14.252832">
        <ele>1590.6206578176</ele>
        <time>2011-02-26T11:48:46Z</time>
      </trkpt>
      <trkpt lat="46.379525" lon="14.252815">
        <ele>1591.1006519808</ele>
        <time>2011-02-26T11:49:02Z</time>
      </trkpt>
      <trkpt lat="46.379576" lon="14.252771">
        <ele>1593.98061696</ele>
        <time>2011-02-26T11:49:13Z</time>
      </trkpt>
      <trkpt lat="46.379621" lon="14.252733">
        <ele>1594.9406052864</ele>
        <time>2011-02-26T11:49:29Z</time>
      </trkpt>
      <trkpt lat="46.379662" lon="14.252714">
        <ele>1597.3505759808</ele>
        <time>2011-02-26T11:49:52Z</time>
      </trkpt>
      <trkpt lat="46.379682" lon="14.252738">
        <ele>1599.2705526336</ele>
        <time>2011-02-26T11:50:06Z</time>
      </trkpt>
      <trkpt lat="46.379714" lon="14.252733">
        <ele>1600.7105351232</ele>
        <time>2011-02-26T11:50:15Z</time>
      </trkpt>
      <trkpt lat="46.379797" lon="14.252724">
        <ele>1602.6405116544</ele>
        <time>2011-02-26T11:50:31Z</time>
      </trkpt>
      <trkpt lat="46.379852" lon="14.252703">
        <ele>1603.6004999808</ele>
        <time>2011-02-26T11:50:47Z</time>
      </trkpt>
      <trkpt lat="46.379852" lon="14.252703">
        <ele>1604.5604883072</ele>
        <time>2011-02-26T11:51:13Z</time>
      </trkpt>
      <trkpt lat="46.379875" lon="14.252702">
        <ele>1605.5204766336</ele>
        <time>2011-02-26T11:51:25Z</time>
      </trkpt>
      <trkpt lat="46.379876" lon="14.252692">
        <ele>1606.0004707968</ele>
        <time>2011-02-26T11:51:43Z</time>
      </trkpt>
      <trkpt lat="46.379902" lon="14.252707">
        <ele>1607.4404532864</ele>
        <time>2011-02-26T11:52:03Z</time>
      </trkpt>
      <trkpt lat="46.379948" lon="14.252721">
        <ele>1608.880435776</ele>
        <time>2011-02-26T11:52:19Z</time>
      </trkpt>
      <trkpt lat="46.379985" lon="14.252710">
        <ele>1610.8104123072</ele>
        <time>2011-02-26T11:52:34Z</time>
      </trkpt>
      <trkpt lat="46.379998" lon="14.252665">
        <ele>1611.7704006336</ele>
        <time>2011-02-26T11:52:54Z</time>
      </trkpt>
      <trkpt lat="46.380080" lon="14.252616">
        <ele>1614.6503656128</ele>
        <time>2011-02-26T11:53:11Z</time>
      </trkpt>
      <trkpt lat="46.380088" lon="14.252621">
        <ele>1615.6103539392</ele>
        <time>2011-02-26T11:53:25Z</time>
      </trkpt>
      <trkpt lat="46.380184" lon="14.252627">
        <ele>1617.5403304704</ele>
        <time>2011-02-26T11:53:39Z</time>
      </trkpt>
      <trkpt lat="46.380223" lon="14.252613">
        <ele>1618.5003187968</ele>
        <time>2011-02-26T11:53:51Z</time>
      </trkpt>
      <trkpt lat="46.380269" lon="14.252630">
        <ele>1618.5003187968</ele>
        <time>2011-02-26T11:54:03Z</time>
      </trkpt>
      <trkpt lat="46.380304" lon="14.252651">
        <ele>1621.8602779392</ele>
        <time>2011-02-26T11:54:09Z</time>
      </trkpt>
      <trkpt lat="46.380355" lon="14.252698">
        <ele>1622.3402721024</ele>
        <time>2011-02-26T11:54:18Z</time>
      </trkpt>
      <trkpt lat="46.380405" lon="14.252730">
        <ele>1625.23023696</ele>
        <time>2011-02-26T11:54:30Z</time>
      </trkpt>
      <trkpt lat="46.380463" lon="14.252761">
        <ele>1627.1502136128</ele>
        <time>2011-02-26T11:54:44Z</time>
      </trkpt>
      <trkpt lat="46.380533" lon="14.252756">
        <ele>1628.5901961024</ele>
        <time>2011-02-26T11:54:57Z</time>
      </trkpt>
      <trkpt lat="46.380580" lon="14.252755">
        <ele>1632.4401492864</ele>
        <time>2011-02-26T11:55:08Z</time>
      </trkpt>
      <trkpt lat="46.380645" lon="14.252716">
        <ele>1632.4401492864</ele>
        <time>2011-02-26T11:55:23Z</time>
      </trkpt>
      <trkpt lat="46.380640" lon="14.252718">
        <ele>1632.4401492864</ele>
        <time>2011-02-26T11:55:31Z</time>
      </trkpt>
      <trkpt lat="46.380656" lon="14.252739">
        <ele>1632.9201434496</ele>
        <time>2011-02-26T11:55:35Z</time>
      </trkpt>
      <trkpt lat="46.380690" lon="14.252736">
        <ele>1632.4401492864</ele>
        <time>2011-02-26T11:55:38Z</time>
      </trkpt>
      <trkpt lat="46.380704" lon="14.252709">
        <ele>1631.4701610816</ele>
        <time>2011-02-26T11:55:51Z</time>
      </trkpt>
      <trkpt lat="46.380704" lon="14.252709">
        <ele>1634.8401201024</ele>
        <time>2011-02-26T11:55:54Z</time>
      </trkpt>
      <trkpt lat="46.380704" lon="14.252709">
        <ele>1629.0701902656</ele>
        <time>2011-02-26T11:55:57Z</time>
      </trkpt>
      <trkpt lat="46.380704" lon="14.252709">
        <ele>1630.030178592</ele>
        <time>2011-02-26T11:55:58Z</time>
      </trkpt>
      <trkpt lat="46.380704" lon="14.252709">
        <ele>1631.9601551232</ele>
        <time>2011-02-26T11:55:59Z</time>
      </trkpt>
      <trkpt lat="46.380702" lon="14.252710">
        <ele>1630.9901669184</ele>
        <time>2011-02-26T11:56:22Z</time>
      </trkpt>
      <trkpt lat="46.380702" lon="14.252710">
        <ele>1631.9601551232</ele>
        <time>2011-02-26T11:56:25Z</time>
      </trkpt>
    </trkseg>
  </trk>
</gpx>
